<?xml version="1.0" encoding="UTF-8" standalone="no" ?>
<gpx xmlns="http://www.topografix.com/GPX/1/1" xmlns:xsi="http://www.w3.org/2001/XMLSchema-instance" xsi:schemaLocation="http://www.topografix.com/GPX/1/1 http://www.topografix.com/GPX/1/1/gpx.xsd" version="1.1" creator="VisuGPX - https://www.visugpx.com">
  <metadata>
    <name>pointe des brasses</name>
  </metadata>
  <trk>
    <name><![CDATA[pointe des brasses_1]]></name>
    <trkseg>
      <trkpt lat="46.14561" lon="6.42294">
        <ele>629.3</ele>
        <time>2009-10-15T10:41:28Z</time>
      </trkpt>
      <trkpt lat="46.14566" lon="6.42285">
        <ele>630.3</ele>
        <time>2009-10-15T10:41:32Z</time>
      </trkpt>
      <trkpt lat="46.14596" lon="6.42294">
        <ele>633.6</ele>
        <time>2009-10-15T10:41:46Z</time>
      </trkpt>
      <trkpt lat="46.14628" lon="6.42307">
        <ele>636.5</ele>
        <time>2009-10-15T10:42:01Z</time>
      </trkpt>
      <trkpt lat="46.1464" lon="6.42315">
        <ele>638</ele>
        <time>2009-10-15T10:42:08Z</time>
      </trkpt>
      <trkpt lat="46.14655" lon="6.42321">
        <ele>639.9</ele>
        <time>2009-10-15T10:42:16Z</time>
      </trkpt>
      <trkpt lat="46.14685" lon="6.42307">
        <ele>643.7</ele>
        <time>2009-10-15T10:42:33Z</time>
      </trkpt>
      <trkpt lat="46.14717" lon="6.42266">
        <ele>647.1</ele>
        <time>2009-10-15T10:42:52Z</time>
      </trkpt>
      <trkpt lat="46.14751" lon="6.42223">
        <ele>652.9</ele>
        <time>2009-10-15T10:43:14Z</time>
      </trkpt>
      <trkpt lat="46.14781" lon="6.42188">
        <ele>655.8</ele>
        <time>2009-10-15T10:43:32Z</time>
      </trkpt>
      <trkpt lat="46.14809" lon="6.42185">
        <ele>660.1</ele>
        <time>2009-10-15T10:43:46Z</time>
      </trkpt>
      <trkpt lat="46.14824" lon="6.42228">
        <ele>665.4</ele>
        <time>2009-10-15T10:44:02Z</time>
      </trkpt>
      <trkpt lat="46.14824" lon="6.42292">
        <ele>671.1</ele>
        <time>2009-10-15T10:44:24Z</time>
      </trkpt>
      <trkpt lat="46.14826" lon="6.42366">
        <ele>677.4</ele>
        <time>2009-10-15T10:44:49Z</time>
      </trkpt>
      <trkpt lat="46.14822" lon="6.42424">
        <ele>681.7</ele>
        <time>2009-10-15T10:45:09Z</time>
      </trkpt>
      <trkpt lat="46.14803" lon="6.42488">
        <ele>687</ele>
        <time>2009-10-15T10:45:32Z</time>
      </trkpt>
      <trkpt lat="46.14794" lon="6.42512">
        <ele>688.4</ele>
        <time>2009-10-15T10:45:41Z</time>
      </trkpt>
      <trkpt lat="46.14813" lon="6.42522">
        <ele>690.8</ele>
        <time>2009-10-15T10:45:52Z</time>
      </trkpt>
      <trkpt lat="46.14816" lon="6.42519">
        <ele>690.8</ele>
        <time>2009-10-15T10:45:53Z</time>
      </trkpt>
      <trkpt lat="46.14842" lon="6.42475">
        <ele>692.8</ele>
        <time>2009-10-15T10:46:11Z</time>
      </trkpt>
      <trkpt lat="46.14874" lon="6.42436">
        <ele>696.1</ele>
        <time>2009-10-15T10:46:32Z</time>
      </trkpt>
      <trkpt lat="46.14901" lon="6.424">
        <ele>699.5</ele>
        <time>2009-10-15T10:46:50Z</time>
      </trkpt>
      <trkpt lat="46.14928" lon="6.42379">
        <ele>703.3</ele>
        <time>2009-10-15T10:47:06Z</time>
      </trkpt>
      <trkpt lat="46.14946" lon="6.42371">
        <ele>705.7</ele>
        <time>2009-10-15T10:47:14Z</time>
      </trkpt>
      <trkpt lat="46.14975" lon="6.42335">
        <ele>710.1</ele>
        <time>2009-10-15T10:47:33Z</time>
      </trkpt>
      <trkpt lat="46.14999" lon="6.42323">
        <ele>713</ele>
        <time>2009-10-15T10:47:47Z</time>
      </trkpt>
      <trkpt lat="46.14988" lon="6.42361">
        <ele>716.3</ele>
        <time>2009-10-15T10:48:00Z</time>
      </trkpt>
      <trkpt lat="46.14977" lon="6.42408">
        <ele>719.2</ele>
        <time>2009-10-15T10:48:16Z</time>
      </trkpt>
      <trkpt lat="46.14963" lon="6.42464">
        <ele>725.9</ele>
        <time>2009-10-15T10:48:37Z</time>
      </trkpt>
      <trkpt lat="46.14952" lon="6.42507">
        <ele>728.8</ele>
        <time>2009-10-15T10:48:53Z</time>
      </trkpt>
      <trkpt lat="46.14948" lon="6.42524">
        <ele>729.8</ele>
        <time>2009-10-15T10:49:05Z</time>
      </trkpt>
      <trkpt lat="46.14938" lon="6.42571">
        <ele>732.7</ele>
        <time>2009-10-15T10:49:20Z</time>
      </trkpt>
      <trkpt lat="46.14941" lon="6.42577">
        <ele>733.1</ele>
        <time>2009-10-15T10:49:22Z</time>
      </trkpt>
      <trkpt lat="46.1496" lon="6.42569">
        <ele>734.6</ele>
        <time>2009-10-15T10:49:33Z</time>
      </trkpt>
      <trkpt lat="46.1497" lon="6.4253">
        <ele>736.5</ele>
        <time>2009-10-15T10:49:45Z</time>
      </trkpt>
      <trkpt lat="46.14999" lon="6.42501">
        <ele>739.4</ele>
        <time>2009-10-15T10:50:03Z</time>
      </trkpt>
      <trkpt lat="46.15048" lon="6.42492">
        <ele>744.2</ele>
        <time>2009-10-15T10:50:26Z</time>
      </trkpt>
      <trkpt lat="46.15081" lon="6.42467">
        <ele>747.6</ele>
        <time>2009-10-15T10:50:44Z</time>
      </trkpt>
      <trkpt lat="46.15093" lon="6.4249">
        <ele>750</ele>
        <time>2009-10-15T10:50:55Z</time>
      </trkpt>
      <trkpt lat="46.1507" lon="6.42517">
        <ele>752.8</ele>
        <time>2009-10-15T10:51:09Z</time>
      </trkpt>
      <trkpt lat="46.15055" lon="6.42561">
        <ele>756.7</ele>
        <time>2009-10-15T10:51:26Z</time>
      </trkpt>
      <trkpt lat="46.15082" lon="6.42552">
        <ele>759.1</ele>
        <time>2009-10-15T10:51:39Z</time>
      </trkpt>
      <trkpt lat="46.15126" lon="6.42505">
        <ele>762.9</ele>
        <time>2009-10-15T10:52:03Z</time>
      </trkpt>
      <trkpt lat="46.15141" lon="6.42484">
        <ele>765.8</ele>
        <time>2009-10-15T10:52:13Z</time>
      </trkpt>
      <trkpt lat="46.15162" lon="6.42432">
        <ele>768.2</ele>
        <time>2009-10-15T10:52:31Z</time>
      </trkpt>
      <trkpt lat="46.15178" lon="6.42441">
        <ele>770.2</ele>
        <time>2009-10-15T10:52:40Z</time>
      </trkpt>
      <trkpt lat="46.15167" lon="6.42484">
        <ele>773.5</ele>
        <time>2009-10-15T10:52:54Z</time>
      </trkpt>
      <trkpt lat="46.15153" lon="6.42542">
        <ele>778.8</ele>
        <time>2009-10-15T10:53:15Z</time>
      </trkpt>
      <trkpt lat="46.15136" lon="6.42592">
        <ele>783.1</ele>
        <time>2009-10-15T10:53:34Z</time>
      </trkpt>
      <trkpt lat="46.15113" lon="6.42624">
        <ele>787.5</ele>
        <time>2009-10-15T10:53:50Z</time>
      </trkpt>
      <trkpt lat="46.15085" lon="6.42662">
        <ele>791.3</ele>
        <time>2009-10-15T10:54:08Z</time>
      </trkpt>
      <trkpt lat="46.15086" lon="6.42678">
        <ele>791.8</ele>
        <time>2009-10-15T10:54:12Z</time>
      </trkpt>
      <trkpt lat="46.15103" lon="6.42687">
        <ele>793.2</ele>
        <time>2009-10-15T10:54:20Z</time>
      </trkpt>
      <trkpt lat="46.15134" lon="6.42673">
        <ele>795.6</ele>
        <time>2009-10-15T10:54:35Z</time>
      </trkpt>
      <trkpt lat="46.15178" lon="6.42677">
        <ele>799</ele>
        <time>2009-10-15T10:54:57Z</time>
      </trkpt>
      <trkpt lat="46.15196" lon="6.42639">
        <ele>802.4</ele>
        <time>2009-10-15T10:55:12Z</time>
      </trkpt>
      <trkpt lat="46.15222" lon="6.42617">
        <ele>805.2</ele>
        <time>2009-10-15T10:55:27Z</time>
      </trkpt>
      <trkpt lat="46.15257" lon="6.42604">
        <ele>809.6</ele>
        <time>2009-10-15T10:55:45Z</time>
      </trkpt>
      <trkpt lat="46.1529" lon="6.42578">
        <ele>813.4</ele>
        <time>2009-10-15T10:56:03Z</time>
      </trkpt>
      <trkpt lat="46.15313" lon="6.42541">
        <ele>817.3</ele>
        <time>2009-10-15T10:56:20Z</time>
      </trkpt>
      <trkpt lat="46.15325" lon="6.42505">
        <ele>820.6</ele>
        <time>2009-10-15T10:56:35Z</time>
      </trkpt>
      <trkpt lat="46.15346" lon="6.42474">
        <ele>823</ele>
        <time>2009-10-15T10:56:50Z</time>
      </trkpt>
      <trkpt lat="46.15359" lon="6.42426">
        <ele>826.9</ele>
        <time>2009-10-15T10:57:09Z</time>
      </trkpt>
      <trkpt lat="46.15366" lon="6.42365">
        <ele>829.8</ele>
        <time>2009-10-15T10:57:31Z</time>
      </trkpt>
      <trkpt lat="46.15383" lon="6.42325">
        <ele>833.6</ele>
        <time>2009-10-15T10:57:48Z</time>
      </trkpt>
      <trkpt lat="46.15403" lon="6.42293">
        <ele>837.4</ele>
        <time>2009-10-15T10:58:04Z</time>
      </trkpt>
      <trkpt lat="46.15439" lon="6.42264">
        <ele>840.8</ele>
        <time>2009-10-15T10:58:25Z</time>
      </trkpt>
      <trkpt lat="46.15473" lon="6.42253">
        <ele>845.1</ele>
        <time>2009-10-15T10:58:43Z</time>
      </trkpt>
      <trkpt lat="46.15494" lon="6.42239">
        <ele>846.1</ele>
        <time>2009-10-15T10:58:55Z</time>
      </trkpt>
      <trkpt lat="46.15519" lon="6.4222">
        <ele>849.9</ele>
        <time>2009-10-15T10:59:10Z</time>
      </trkpt>
      <trkpt lat="46.15561" lon="6.42188">
        <ele>854.3</ele>
        <time>2009-10-15T10:59:35Z</time>
      </trkpt>
      <trkpt lat="46.1556" lon="6.42196">
        <ele>855.2</ele>
        <time>2009-10-15T10:59:40Z</time>
      </trkpt>
      <trkpt lat="46.15526" lon="6.42234">
        <ele>857.2</ele>
        <time>2009-10-15T11:00:00Z</time>
      </trkpt>
      <trkpt lat="46.155" lon="6.42281">
        <ele>859.6</ele>
        <time>2009-10-15T11:00:18Z</time>
      </trkpt>
      <trkpt lat="46.15498" lon="6.42294">
        <ele>860.5</ele>
        <time>2009-10-15T11:00:22Z</time>
      </trkpt>
      <trkpt lat="46.15502" lon="6.42309">
        <ele>861</ele>
        <time>2009-10-15T11:00:26Z</time>
      </trkpt>
      <trkpt lat="46.15514" lon="6.42308">
        <ele>861.5</ele>
        <time>2009-10-15T11:00:32Z</time>
      </trkpt>
      <trkpt lat="46.15559" lon="6.42269">
        <ele>863.4</ele>
        <time>2009-10-15T11:00:53Z</time>
      </trkpt>
      <trkpt lat="46.15603" lon="6.42228">
        <ele>867.7</ele>
        <time>2009-10-15T11:01:16Z</time>
      </trkpt>
      <trkpt lat="46.15632" lon="6.42211">
        <ele>870.6</ele>
        <time>2009-10-15T11:01:31Z</time>
      </trkpt>
      <trkpt lat="46.15641" lon="6.42208">
        <ele>871.6</ele>
        <time>2009-10-15T11:01:36Z</time>
      </trkpt>
      <trkpt lat="46.15668" lon="6.42209">
        <ele>874.5</ele>
        <time>2009-10-15T11:01:50Z</time>
      </trkpt>
      <trkpt lat="46.15709" lon="6.42221">
        <ele>879.7</ele>
        <time>2009-10-15T11:02:10Z</time>
      </trkpt>
      <trkpt lat="46.15747" lon="6.42228">
        <ele>884.6</ele>
        <time>2009-10-15T11:02:29Z</time>
      </trkpt>
      <trkpt lat="46.15771" lon="6.42234">
        <ele>888.4</ele>
        <time>2009-10-15T11:02:42Z</time>
      </trkpt>
      <trkpt lat="46.15781" lon="6.42241">
        <ele>889.4</ele>
        <time>2009-10-15T11:02:48Z</time>
      </trkpt>
      <trkpt lat="46.15781" lon="6.42241">
        <ele>889.4</ele>
        <time>2009-10-15T11:02:49Z</time>
      </trkpt>
      <trkpt lat="46.1579" lon="6.42263">
        <ele>891.8</ele>
        <time>2009-10-15T11:03:01Z</time>
      </trkpt>
      <trkpt lat="46.15837" lon="6.42264">
        <ele>896.6</ele>
        <time>2009-10-15T11:03:21Z</time>
      </trkpt>
      <trkpt lat="46.15883" lon="6.42266">
        <ele>895.1</ele>
        <time>2009-10-15T11:03:33Z</time>
      </trkpt>
      <trkpt lat="46.15897" lon="6.42267">
        <ele>895.6</ele>
        <time>2009-10-15T11:03:36Z</time>
      </trkpt>
      <trkpt lat="46.15949" lon="6.42238">
        <ele>898</ele>
        <time>2009-10-15T11:03:51Z</time>
      </trkpt>
      <trkpt lat="46.16003" lon="6.42187">
        <ele>898.5</ele>
        <time>2009-10-15T11:04:10Z</time>
      </trkpt>
      <trkpt lat="46.16062" lon="6.42159">
        <ele>901.4</ele>
        <time>2009-10-15T11:04:28Z</time>
      </trkpt>
      <trkpt lat="46.16134" lon="6.42131">
        <ele>904.7</ele>
        <time>2009-10-15T11:04:52Z</time>
      </trkpt>
      <trkpt lat="46.16183" lon="6.421">
        <ele>907.1</ele>
        <time>2009-10-15T11:05:11Z</time>
      </trkpt>
      <trkpt lat="46.16229" lon="6.42083">
        <ele>911.5</ele>
        <time>2009-10-15T11:05:30Z</time>
      </trkpt>
      <trkpt lat="46.16271" lon="6.42084">
        <ele>915.3</ele>
        <time>2009-10-15T11:05:49Z</time>
      </trkpt>
      <trkpt lat="46.16283" lon="6.42085">
        <ele>916.3</ele>
        <time>2009-10-15T11:05:56Z</time>
      </trkpt>
      <trkpt lat="46.16289" lon="6.42086">
        <ele>916.8</ele>
        <time>2009-10-15T11:05:59Z</time>
      </trkpt>
      <trkpt lat="46.1631" lon="6.4211">
        <ele>919.2</ele>
        <time>2009-10-15T11:06:17Z</time>
      </trkpt>
      <trkpt lat="46.1631" lon="6.4211">
        <ele>919.6</ele>
        <time>2009-10-15T11:06:18Z</time>
      </trkpt>
      <trkpt lat="46.16316" lon="6.42112">
        <ele>922.5</ele>
        <time>2009-10-15T11:06:23Z</time>
      </trkpt>
      <trkpt lat="46.1634" lon="6.42123">
        <ele>927.8</ele>
        <time>2009-10-15T11:06:37Z</time>
      </trkpt>
      <trkpt lat="46.1634" lon="6.42123">
        <ele>928.8</ele>
        <time>2009-10-15T11:06:39Z</time>
      </trkpt>
      <trkpt lat="46.16346" lon="6.42126">
        <ele>929.7</ele>
        <time>2009-10-15T11:06:41Z</time>
      </trkpt>
      <trkpt lat="46.1635" lon="6.42129">
        <ele>930.2</ele>
        <time>2009-10-15T11:06:43Z</time>
      </trkpt>
      <trkpt lat="46.16353" lon="6.42131">
        <ele>930.7</ele>
        <time>2009-10-15T11:06:45Z</time>
      </trkpt>
      <trkpt lat="46.1637" lon="6.42141">
        <ele>933.6</ele>
        <time>2009-10-15T11:07:02Z</time>
      </trkpt>
      <trkpt lat="46.16405" lon="6.42167">
        <ele>935</ele>
        <time>2009-10-15T11:07:20Z</time>
      </trkpt>
      <trkpt lat="46.16429" lon="6.42192">
        <ele>938.9</ele>
        <time>2009-10-15T11:07:40Z</time>
      </trkpt>
      <trkpt lat="46.16433" lon="6.42205">
        <ele>940.8</ele>
        <time>2009-10-15T11:07:48Z</time>
      </trkpt>
      <trkpt lat="46.16411" lon="6.4222">
        <ele>943.7</ele>
        <time>2009-10-15T11:08:05Z</time>
      </trkpt>
      <trkpt lat="46.16389" lon="6.42223">
        <ele>947</ele>
        <time>2009-10-15T11:08:21Z</time>
      </trkpt>
      <trkpt lat="46.16381" lon="6.42225">
        <ele>950.4</ele>
        <time>2009-10-15T11:08:28Z</time>
      </trkpt>
      <trkpt lat="46.1639" lon="6.42278">
        <ele>953.8</ele>
        <time>2009-10-15T11:08:48Z</time>
      </trkpt>
      <trkpt lat="46.16402" lon="6.42317">
        <ele>952.3</ele>
        <time>2009-10-15T11:09:00Z</time>
      </trkpt>
      <trkpt lat="46.1642" lon="6.42354">
        <ele>949.4</ele>
        <time>2009-10-15T11:09:12Z</time>
      </trkpt>
      <trkpt lat="46.16435" lon="6.42385">
        <ele>948</ele>
        <time>2009-10-15T11:09:22Z</time>
      </trkpt>
      <trkpt lat="46.16453" lon="6.42434">
        <ele>947</ele>
        <time>2009-10-15T11:09:36Z</time>
      </trkpt>
      <trkpt lat="46.16455" lon="6.42486">
        <ele>951.8</ele>
        <time>2009-10-15T11:09:51Z</time>
      </trkpt>
      <trkpt lat="46.16455" lon="6.42507">
        <ele>956.2</ele>
        <time>2009-10-15T11:10:00Z</time>
      </trkpt>
      <trkpt lat="46.16457" lon="6.42532">
        <ele>961</ele>
        <time>2009-10-15T11:10:10Z</time>
      </trkpt>
      <trkpt lat="46.16459" lon="6.42563">
        <ele>968.7</ele>
        <time>2009-10-15T11:10:23Z</time>
      </trkpt>
      <trkpt lat="46.16459" lon="6.4259">
        <ele>976.4</ele>
        <time>2009-10-15T11:10:35Z</time>
      </trkpt>
      <trkpt lat="46.16459" lon="6.42603">
        <ele>979.2</ele>
        <time>2009-10-15T11:10:41Z</time>
      </trkpt>
      <trkpt lat="46.16459" lon="6.42625">
        <ele>982.1</ele>
        <time>2009-10-15T11:10:51Z</time>
      </trkpt>
      <trkpt lat="46.16459" lon="6.42643">
        <ele>984.5</ele>
        <time>2009-10-15T11:10:58Z</time>
      </trkpt>
      <trkpt lat="46.1646" lon="6.42656">
        <ele>986.9</ele>
        <time>2009-10-15T11:11:03Z</time>
      </trkpt>
      <trkpt lat="46.16462" lon="6.42666">
        <ele>988.4</ele>
        <time>2009-10-15T11:11:07Z</time>
      </trkpt>
      <trkpt lat="46.16471" lon="6.42699">
        <ele>996.1</ele>
        <time>2009-10-15T11:11:21Z</time>
      </trkpt>
      <trkpt lat="46.16473" lon="6.42705">
        <ele>998</ele>
        <time>2009-10-15T11:11:24Z</time>
      </trkpt>
      <trkpt lat="46.16475" lon="6.42712">
        <ele>999.9</ele>
        <time>2009-10-15T11:11:27Z</time>
      </trkpt>
      <trkpt lat="46.16478" lon="6.42718">
        <ele>1001.8</ele>
        <time>2009-10-15T11:11:30Z</time>
      </trkpt>
      <trkpt lat="46.16482" lon="6.4273">
        <ele>1005.2</ele>
        <time>2009-10-15T11:11:36Z</time>
      </trkpt>
      <trkpt lat="46.16495" lon="6.42777">
        <ele>1015.8</ele>
        <time>2009-10-15T11:11:59Z</time>
      </trkpt>
      <trkpt lat="46.16496" lon="6.4278">
        <ele>1013.8</ele>
        <time>2009-10-15T11:12:02Z</time>
      </trkpt>
      <trkpt lat="46.16497" lon="6.42791">
        <ele>1014.8</ele>
        <time>2009-10-15T11:12:08Z</time>
      </trkpt>
      <trkpt lat="46.16499" lon="6.42799">
        <ele>1016.3</ele>
        <time>2009-10-15T11:12:12Z</time>
      </trkpt>
      <trkpt lat="46.165" lon="6.42808">
        <ele>1018.2</ele>
        <time>2009-10-15T11:12:17Z</time>
      </trkpt>
      <trkpt lat="46.16505" lon="6.42845">
        <ele>1023.5</ele>
        <time>2009-10-15T11:12:35Z</time>
      </trkpt>
      <trkpt lat="46.16506" lon="6.42849">
        <ele>1023.5</ele>
        <time>2009-10-15T11:12:37Z</time>
      </trkpt>
      <trkpt lat="46.16506" lon="6.42853">
        <ele>1024.4</ele>
        <time>2009-10-15T11:12:39Z</time>
      </trkpt>
      <trkpt lat="46.16507" lon="6.42857">
        <ele>1024.9</ele>
        <time>2009-10-15T11:12:41Z</time>
      </trkpt>
      <trkpt lat="46.16509" lon="6.42865">
        <ele>1026.3</ele>
        <time>2009-10-15T11:12:45Z</time>
      </trkpt>
      <trkpt lat="46.16516" lon="6.42899">
        <ele>1031.6</ele>
        <time>2009-10-15T11:13:03Z</time>
      </trkpt>
      <trkpt lat="46.16523" lon="6.42938">
        <ele>1035</ele>
        <time>2009-10-15T11:13:22Z</time>
      </trkpt>
      <trkpt lat="46.16525" lon="6.42944">
        <ele>1035.5</ele>
        <time>2009-10-15T11:13:25Z</time>
      </trkpt>
      <trkpt lat="46.16536" lon="6.42971">
        <ele>1036</ele>
        <time>2009-10-15T11:13:41Z</time>
      </trkpt>
      <trkpt lat="46.16537" lon="6.42972">
        <ele>1036</ele>
        <time>2009-10-15T11:13:42Z</time>
      </trkpt>
      <trkpt lat="46.16542" lon="6.42987">
        <ele>1036.4</ele>
        <time>2009-10-15T11:13:49Z</time>
      </trkpt>
      <trkpt lat="46.1655" lon="6.4302">
        <ele>1035.5</ele>
        <time>2009-10-15T11:14:05Z</time>
      </trkpt>
      <trkpt lat="46.16552" lon="6.43029">
        <ele>1036</ele>
        <time>2009-10-15T11:14:09Z</time>
      </trkpt>
      <trkpt lat="46.16555" lon="6.43048">
        <ele>1037.4</ele>
        <time>2009-10-15T11:14:17Z</time>
      </trkpt>
      <trkpt lat="46.16556" lon="6.43061">
        <ele>1038.8</ele>
        <time>2009-10-15T11:14:23Z</time>
      </trkpt>
      <trkpt lat="46.16575" lon="6.43098">
        <ele>1040.3</ele>
        <time>2009-10-15T11:14:42Z</time>
      </trkpt>
      <trkpt lat="46.16577" lon="6.43101">
        <ele>1040.8</ele>
        <time>2009-10-15T11:14:44Z</time>
      </trkpt>
      <trkpt lat="46.16586" lon="6.43123">
        <ele>1040.8</ele>
        <time>2009-10-15T11:14:55Z</time>
      </trkpt>
      <trkpt lat="46.16588" lon="6.43133">
        <ele>1042.2</ele>
        <time>2009-10-15T11:15:00Z</time>
      </trkpt>
      <trkpt lat="46.16598" lon="6.4318">
        <ele>1042.2</ele>
        <time>2009-10-15T11:15:22Z</time>
      </trkpt>
      <trkpt lat="46.16606" lon="6.43188">
        <ele>1041.7</ele>
        <time>2009-10-15T11:15:36Z</time>
      </trkpt>
      <trkpt lat="46.16637" lon="6.43171">
        <ele>1042.2</ele>
        <time>2009-10-15T11:15:53Z</time>
      </trkpt>
      <trkpt lat="46.16651" lon="6.43154">
        <ele>1045.6</ele>
        <time>2009-10-15T11:16:06Z</time>
      </trkpt>
      <trkpt lat="46.1666" lon="6.43137">
        <ele>1049.4</ele>
        <time>2009-10-15T11:16:17Z</time>
      </trkpt>
      <trkpt lat="46.16666" lon="6.43123">
        <ele>1050.9</ele>
        <time>2009-10-15T11:16:25Z</time>
      </trkpt>
      <trkpt lat="46.16669" lon="6.43117">
        <ele>1051.3</ele>
        <time>2009-10-15T11:16:29Z</time>
      </trkpt>
      <trkpt lat="46.16681" lon="6.43097">
        <ele>1052.8</ele>
        <time>2009-10-15T11:16:43Z</time>
      </trkpt>
      <trkpt lat="46.16692" lon="6.43083">
        <ele>1053.3</ele>
        <time>2009-10-15T11:16:56Z</time>
      </trkpt>
      <trkpt lat="46.16702" lon="6.43075">
        <ele>1055.7</ele>
        <time>2009-10-15T11:17:08Z</time>
      </trkpt>
      <trkpt lat="46.16708" lon="6.4307">
        <ele>1057.1</ele>
        <time>2009-10-15T11:17:11Z</time>
      </trkpt>
      <trkpt lat="46.16721" lon="6.43062">
        <ele>1061</ele>
        <time>2009-10-15T11:17:21Z</time>
      </trkpt>
      <trkpt lat="46.16735" lon="6.43056">
        <ele>1062.4</ele>
        <time>2009-10-15T11:17:31Z</time>
      </trkpt>
      <trkpt lat="46.16739" lon="6.43054">
        <ele>1063.8</ele>
        <time>2009-10-15T11:17:35Z</time>
      </trkpt>
      <trkpt lat="46.16749" lon="6.43051">
        <ele>1065.3</ele>
        <time>2009-10-15T11:17:43Z</time>
      </trkpt>
      <trkpt lat="46.16778" lon="6.43034">
        <ele>1069.6</ele>
        <time>2009-10-15T11:18:04Z</time>
      </trkpt>
      <trkpt lat="46.16794" lon="6.43004">
        <ele>1072.5</ele>
        <time>2009-10-15T11:18:20Z</time>
      </trkpt>
      <trkpt lat="46.16813" lon="6.42989">
        <ele>1073</ele>
        <time>2009-10-15T11:18:34Z</time>
      </trkpt>
      <trkpt lat="46.16838" lon="6.42967">
        <ele>1076.8</ele>
        <time>2009-10-15T11:18:52Z</time>
      </trkpt>
      <trkpt lat="46.1685" lon="6.42946">
        <ele>1078.7</ele>
        <time>2009-10-15T11:19:06Z</time>
      </trkpt>
      <trkpt lat="46.16859" lon="6.42943">
        <ele>1080.2</ele>
        <time>2009-10-15T11:19:14Z</time>
      </trkpt>
      <trkpt lat="46.16866" lon="6.42973">
        <ele>1083.1</ele>
        <time>2009-10-15T11:19:30Z</time>
      </trkpt>
      <trkpt lat="46.1685" lon="6.4301">
        <ele>1088.3</ele>
        <time>2009-10-15T11:19:49Z</time>
      </trkpt>
      <trkpt lat="46.1684" lon="6.43027">
        <ele>1090.8</ele>
        <time>2009-10-15T11:20:02Z</time>
      </trkpt>
      <trkpt lat="46.1684" lon="6.43027">
        <ele>1091.2</ele>
        <time>2009-10-15T11:20:36Z</time>
      </trkpt>
      <trkpt lat="46.16823" lon="6.43059">
        <ele>1094.6</ele>
        <time>2009-10-15T11:20:53Z</time>
      </trkpt>
      <trkpt lat="46.16809" lon="6.43083">
        <ele>1097</ele>
        <time>2009-10-15T11:21:04Z</time>
      </trkpt>
      <trkpt lat="46.16805" lon="6.43088">
        <ele>1097.5</ele>
        <time>2009-10-15T11:21:07Z</time>
      </trkpt>
      <trkpt lat="46.168" lon="6.43094">
        <ele>1098</ele>
        <time>2009-10-15T11:21:10Z</time>
      </trkpt>
      <trkpt lat="46.16782" lon="6.43116">
        <ele>1099.9</ele>
        <time>2009-10-15T11:21:23Z</time>
      </trkpt>
      <trkpt lat="46.16766" lon="6.43134">
        <ele>1102.3</ele>
        <time>2009-10-15T11:21:36Z</time>
      </trkpt>
      <trkpt lat="46.16746" lon="6.43169">
        <ele>1107.1</ele>
        <time>2009-10-15T11:21:56Z</time>
      </trkpt>
      <trkpt lat="46.16732" lon="6.43203">
        <ele>1110.9</ele>
        <time>2009-10-15T11:22:12Z</time>
      </trkpt>
      <trkpt lat="46.16717" lon="6.4324">
        <ele>1115.7</ele>
        <time>2009-10-15T11:22:31Z</time>
      </trkpt>
      <trkpt lat="46.16702" lon="6.43297">
        <ele>1122</ele>
        <time>2009-10-15T11:22:57Z</time>
      </trkpt>
      <trkpt lat="46.16697" lon="6.43338">
        <ele>1125.4</ele>
        <time>2009-10-15T11:23:17Z</time>
      </trkpt>
      <trkpt lat="46.16698" lon="6.43385">
        <ele>1129.7</ele>
        <time>2009-10-15T11:23:38Z</time>
      </trkpt>
      <trkpt lat="46.16686" lon="6.43442">
        <ele>1134.5</ele>
        <time>2009-10-15T11:24:00Z</time>
      </trkpt>
      <trkpt lat="46.16666" lon="6.43459">
        <ele>1141.7</ele>
        <time>2009-10-15T11:24:15Z</time>
      </trkpt>
      <trkpt lat="46.16642" lon="6.43448">
        <ele>1146</ele>
        <time>2009-10-15T11:24:31Z</time>
      </trkpt>
      <trkpt lat="46.16636" lon="6.43447">
        <ele>1147.5</ele>
        <time>2009-10-15T11:24:39Z</time>
      </trkpt>
      <trkpt lat="46.16629" lon="6.43447">
        <ele>1148</ele>
        <time>2009-10-15T11:24:45Z</time>
      </trkpt>
      <trkpt lat="46.16622" lon="6.43453">
        <ele>1149.4</ele>
        <time>2009-10-15T11:24:53Z</time>
      </trkpt>
      <trkpt lat="46.16622" lon="6.43453">
        <ele>1149.9</ele>
        <time>2009-10-15T11:24:55Z</time>
      </trkpt>
      <trkpt lat="46.16608" lon="6.43474">
        <ele>1153.2</ele>
        <time>2009-10-15T11:25:09Z</time>
      </trkpt>
      <trkpt lat="46.16596" lon="6.43496">
        <ele>1156.6</ele>
        <time>2009-10-15T11:25:22Z</time>
      </trkpt>
      <trkpt lat="46.16593" lon="6.435">
        <ele>1157.1</ele>
        <time>2009-10-15T11:25:25Z</time>
      </trkpt>
      <trkpt lat="46.16581" lon="6.43518">
        <ele>1159</ele>
        <time>2009-10-15T11:25:37Z</time>
      </trkpt>
      <trkpt lat="46.16567" lon="6.43536">
        <ele>1160</ele>
        <time>2009-10-15T11:25:49Z</time>
      </trkpt>
      <trkpt lat="46.16561" lon="6.43543">
        <ele>1160.9</ele>
        <time>2009-10-15T11:25:52Z</time>
      </trkpt>
      <trkpt lat="46.1655" lon="6.43549">
        <ele>1163.8</ele>
        <time>2009-10-15T11:26:02Z</time>
      </trkpt>
      <trkpt lat="46.16547" lon="6.43553">
        <ele>1164.8</ele>
        <time>2009-10-15T11:26:08Z</time>
      </trkpt>
      <trkpt lat="46.16543" lon="6.43561">
        <ele>1164.8</ele>
        <time>2009-10-15T11:26:12Z</time>
      </trkpt>
      <trkpt lat="46.16537" lon="6.43584">
        <ele>1167.2</ele>
        <time>2009-10-15T11:26:29Z</time>
      </trkpt>
      <trkpt lat="46.16538" lon="6.43597">
        <ele>1168.1</ele>
        <time>2009-10-15T11:26:35Z</time>
      </trkpt>
      <trkpt lat="46.16538" lon="6.43602">
        <ele>1169.1</ele>
        <time>2009-10-15T11:26:37Z</time>
      </trkpt>
      <trkpt lat="46.16539" lon="6.43606">
        <ele>1169.1</ele>
        <time>2009-10-15T11:26:39Z</time>
      </trkpt>
      <trkpt lat="46.16535" lon="6.43631">
        <ele>1170.5</ele>
        <time>2009-10-15T11:26:52Z</time>
      </trkpt>
      <trkpt lat="46.16533" lon="6.43641">
        <ele>1171</ele>
        <time>2009-10-15T11:26:57Z</time>
      </trkpt>
      <trkpt lat="46.16531" lon="6.43678">
        <ele>1175.8</ele>
        <time>2009-10-15T11:27:15Z</time>
      </trkpt>
      <trkpt lat="46.16525" lon="6.43693">
        <ele>1178.7</ele>
        <time>2009-10-15T11:27:23Z</time>
      </trkpt>
      <trkpt lat="46.16519" lon="6.43699">
        <ele>1180.2</ele>
        <time>2009-10-15T11:27:28Z</time>
      </trkpt>
      <trkpt lat="46.16501" lon="6.43701">
        <ele>1186.4</ele>
        <time>2009-10-15T11:27:43Z</time>
      </trkpt>
      <trkpt lat="46.16485" lon="6.43698">
        <ele>1188.3</ele>
        <time>2009-10-15T11:27:56Z</time>
      </trkpt>
      <trkpt lat="46.16482" lon="6.43698">
        <ele>1190.7</ele>
        <time>2009-10-15T11:28:07Z</time>
      </trkpt>
      <trkpt lat="46.1647" lon="6.43696">
        <ele>1195.1</ele>
        <time>2009-10-15T11:28:17Z</time>
      </trkpt>
      <trkpt lat="46.16462" lon="6.43696">
        <ele>1199.9</ele>
        <time>2009-10-15T11:28:29Z</time>
      </trkpt>
      <trkpt lat="46.16449" lon="6.43694">
        <ele>1203.7</ele>
        <time>2009-10-15T11:28:40Z</time>
      </trkpt>
      <trkpt lat="46.16449" lon="6.43694">
        <ele>1204.7</ele>
        <time>2009-10-15T11:28:42Z</time>
      </trkpt>
      <trkpt lat="46.16447" lon="6.43693">
        <ele>1206.1</ele>
        <time>2009-10-15T11:28:45Z</time>
      </trkpt>
      <trkpt lat="46.16442" lon="6.43691">
        <ele>1208</ele>
        <time>2009-10-15T11:28:51Z</time>
      </trkpt>
      <trkpt lat="46.16407" lon="6.43666">
        <ele>1209.5</ele>
        <time>2009-10-15T11:29:05Z</time>
      </trkpt>
      <trkpt lat="46.16406" lon="6.43665">
        <ele>1210.9</ele>
        <time>2009-10-15T11:29:11Z</time>
      </trkpt>
      <trkpt lat="46.16396" lon="6.43657">
        <ele>1211.4</ele>
        <time>2009-10-15T11:29:13Z</time>
      </trkpt>
      <trkpt lat="46.16392" lon="6.43654">
        <ele>1211.9</ele>
        <time>2009-10-15T11:29:15Z</time>
      </trkpt>
      <trkpt lat="46.16377" lon="6.43636">
        <ele>1213.3</ele>
        <time>2009-10-15T11:29:27Z</time>
      </trkpt>
      <trkpt lat="46.16363" lon="6.43615">
        <ele>1214.8</ele>
        <time>2009-10-15T11:29:40Z</time>
      </trkpt>
      <trkpt lat="46.16362" lon="6.43613">
        <ele>1214.3</ele>
        <time>2009-10-15T11:29:41Z</time>
      </trkpt>
      <trkpt lat="46.1636" lon="6.4361">
        <ele>1215.2</ele>
        <time>2009-10-15T11:29:47Z</time>
      </trkpt>
      <trkpt lat="46.16351" lon="6.43597">
        <ele>1215.7</ele>
        <time>2009-10-15T11:29:55Z</time>
      </trkpt>
      <trkpt lat="46.16332" lon="6.43569">
        <ele>1218.1</ele>
        <time>2009-10-15T11:30:09Z</time>
      </trkpt>
      <trkpt lat="46.16328" lon="6.43563">
        <ele>1220.5</ele>
        <time>2009-10-15T11:30:15Z</time>
      </trkpt>
      <trkpt lat="46.16316" lon="6.43544">
        <ele>1224.9</ele>
        <time>2009-10-15T11:30:27Z</time>
      </trkpt>
      <trkpt lat="46.1631" lon="6.43536">
        <ele>1226.8</ele>
        <time>2009-10-15T11:30:31Z</time>
      </trkpt>
      <trkpt lat="46.16304" lon="6.43527">
        <ele>1225.8</ele>
        <time>2009-10-15T11:30:36Z</time>
      </trkpt>
      <trkpt lat="46.163" lon="6.43521">
        <ele>1224.9</ele>
        <time>2009-10-15T11:30:38Z</time>
      </trkpt>
      <trkpt lat="46.16295" lon="6.43513">
        <ele>1223.9</ele>
        <time>2009-10-15T11:30:41Z</time>
      </trkpt>
      <trkpt lat="46.16288" lon="6.43501">
        <ele>1223.4</ele>
        <time>2009-10-15T11:30:47Z</time>
      </trkpt>
      <trkpt lat="46.16308" lon="6.43468">
        <ele>1222.9</ele>
        <time>2009-10-15T11:30:51Z</time>
      </trkpt>
      <trkpt lat="46.16299" lon="6.43413">
        <ele>1222</ele>
        <time>2009-10-15T11:31:05Z</time>
      </trkpt>
      <trkpt lat="46.16279" lon="6.43349">
        <ele>1219.1</ele>
        <time>2009-10-15T11:31:21Z</time>
      </trkpt>
      <trkpt lat="46.16271" lon="6.43343">
        <ele>1217.2</ele>
        <time>2009-10-15T11:31:23Z</time>
      </trkpt>
      <trkpt lat="46.16237" lon="6.43328">
        <ele>1215.2</ele>
        <time>2009-10-15T11:31:37Z</time>
      </trkpt>
      <trkpt lat="46.16233" lon="6.43335">
        <ele>1215.7</ele>
        <time>2009-10-15T11:31:42Z</time>
      </trkpt>
      <trkpt lat="46.16231" lon="6.4334">
        <ele>1215.2</ele>
        <time>2009-10-15T11:31:45Z</time>
      </trkpt>
      <trkpt lat="46.16225" lon="6.43355">
        <ele>1216.7</ele>
        <time>2009-10-15T11:31:53Z</time>
      </trkpt>
      <trkpt lat="46.16221" lon="6.43372">
        <ele>1219.6</ele>
        <time>2009-10-15T11:32:02Z</time>
      </trkpt>
      <trkpt lat="46.16218" lon="6.43407">
        <ele>1226.3</ele>
        <time>2009-10-15T11:32:22Z</time>
      </trkpt>
      <trkpt lat="46.16216" lon="6.43424">
        <ele>1228.7</ele>
        <time>2009-10-15T11:32:34Z</time>
      </trkpt>
      <trkpt lat="46.16215" lon="6.43454">
        <ele>1230.6</ele>
        <time>2009-10-15T11:32:50Z</time>
      </trkpt>
      <trkpt lat="46.16215" lon="6.43466">
        <ele>1232.1</ele>
        <time>2009-10-15T11:32:56Z</time>
      </trkpt>
      <trkpt lat="46.16214" lon="6.43473">
        <ele>1232.1</ele>
        <time>2009-10-15T11:33:00Z</time>
      </trkpt>
      <trkpt lat="46.16212" lon="6.43493">
        <ele>1233.5</ele>
        <time>2009-10-15T11:33:11Z</time>
      </trkpt>
      <trkpt lat="46.16211" lon="6.43525">
        <ele>1236.4</ele>
        <time>2009-10-15T11:33:27Z</time>
      </trkpt>
      <trkpt lat="46.16211" lon="6.43542">
        <ele>1237.8</ele>
        <time>2009-10-15T11:33:35Z</time>
      </trkpt>
      <trkpt lat="46.16227" lon="6.43574">
        <ele>1240.7</ele>
        <time>2009-10-15T11:33:57Z</time>
      </trkpt>
      <trkpt lat="46.16229" lon="6.43578">
        <ele>1240.2</ele>
        <time>2009-10-15T11:34:13Z</time>
      </trkpt>
      <trkpt lat="46.16229" lon="6.43581">
        <ele>1240.7</ele>
        <time>2009-10-15T11:34:15Z</time>
      </trkpt>
      <trkpt lat="46.16233" lon="6.43595">
        <ele>1240.7</ele>
        <time>2009-10-15T11:34:22Z</time>
      </trkpt>
      <trkpt lat="46.16234" lon="6.436">
        <ele>1240.7</ele>
        <time>2009-10-15T11:34:24Z</time>
      </trkpt>
      <trkpt lat="46.16233" lon="6.43605">
        <ele>1241.7</ele>
        <time>2009-10-15T11:34:27Z</time>
      </trkpt>
      <trkpt lat="46.16235" lon="6.4362">
        <ele>1243.1</ele>
        <time>2009-10-15T11:34:34Z</time>
      </trkpt>
      <trkpt lat="46.16236" lon="6.43629">
        <ele>1245.5</ele>
        <time>2009-10-15T11:34:48Z</time>
      </trkpt>
      <trkpt lat="46.16236" lon="6.43629">
        <ele>1246</ele>
        <time>2009-10-15T11:34:49Z</time>
      </trkpt>
      <trkpt lat="46.16241" lon="6.43635">
        <ele>1247</ele>
        <time>2009-10-15T11:34:55Z</time>
      </trkpt>
      <trkpt lat="46.16243" lon="6.43641">
        <ele>1247.4</ele>
        <time>2009-10-15T11:34:58Z</time>
      </trkpt>
      <trkpt lat="46.16254" lon="6.43664">
        <ele>1248.9</ele>
        <time>2009-10-15T11:35:10Z</time>
      </trkpt>
      <trkpt lat="46.16258" lon="6.43674">
        <ele>1249.4</ele>
        <time>2009-10-15T11:35:14Z</time>
      </trkpt>
      <trkpt lat="46.16271" lon="6.43699">
        <ele>1250.8</ele>
        <time>2009-10-15T11:35:24Z</time>
      </trkpt>
      <trkpt lat="46.16272" lon="6.43702">
        <ele>1250.3</ele>
        <time>2009-10-15T11:35:26Z</time>
      </trkpt>
      <trkpt lat="46.16271" lon="6.43705">
        <ele>1250.3</ele>
        <time>2009-10-15T11:35:28Z</time>
      </trkpt>
      <trkpt lat="46.16274" lon="6.43713">
        <ele>1250.3</ele>
        <time>2009-10-15T11:35:32Z</time>
      </trkpt>
      <trkpt lat="46.16275" lon="6.43718">
        <ele>1250.8</ele>
        <time>2009-10-15T11:35:34Z</time>
      </trkpt>
      <trkpt lat="46.16288" lon="6.43739">
        <ele>1252.7</ele>
        <time>2009-10-15T11:35:44Z</time>
      </trkpt>
      <trkpt lat="46.16298" lon="6.43756">
        <ele>1255.1</ele>
        <time>2009-10-15T11:35:55Z</time>
      </trkpt>
      <trkpt lat="46.16307" lon="6.43769">
        <ele>1258</ele>
        <time>2009-10-15T11:36:04Z</time>
      </trkpt>
      <trkpt lat="46.16314" lon="6.43782">
        <ele>1261.4</ele>
        <time>2009-10-15T11:36:15Z</time>
      </trkpt>
      <trkpt lat="46.16318" lon="6.43793">
        <ele>1263.8</ele>
        <time>2009-10-15T11:36:27Z</time>
      </trkpt>
      <trkpt lat="46.16316" lon="6.43801">
        <ele>1267.2</ele>
        <time>2009-10-15T11:36:48Z</time>
      </trkpt>
      <trkpt lat="46.16319" lon="6.43807">
        <ele>1266.7</ele>
        <time>2009-10-15T11:36:54Z</time>
      </trkpt>
      <trkpt lat="46.16328" lon="6.43816">
        <ele>1270.5</ele>
        <time>2009-10-15T11:37:06Z</time>
      </trkpt>
      <trkpt lat="46.16335" lon="6.43829">
        <ele>1272</ele>
        <time>2009-10-15T11:37:22Z</time>
      </trkpt>
      <trkpt lat="46.16336" lon="6.4383">
        <ele>1272.4</ele>
        <time>2009-10-15T11:37:24Z</time>
      </trkpt>
      <trkpt lat="46.16347" lon="6.43847">
        <ele>1276.8</ele>
        <time>2009-10-15T11:37:44Z</time>
      </trkpt>
      <trkpt lat="46.16354" lon="6.43869">
        <ele>1281.6</ele>
        <time>2009-10-15T11:38:05Z</time>
      </trkpt>
      <trkpt lat="46.16358" lon="6.43884">
        <ele>1286.4</ele>
        <time>2009-10-15T11:38:24Z</time>
      </trkpt>
      <trkpt lat="46.1636" lon="6.43889">
        <ele>1287.8</ele>
        <time>2009-10-15T11:38:29Z</time>
      </trkpt>
      <trkpt lat="46.1637" lon="6.43899">
        <ele>1289.3</ele>
        <time>2009-10-15T11:38:42Z</time>
      </trkpt>
      <trkpt lat="46.16373" lon="6.43907">
        <ele>1290.7</ele>
        <time>2009-10-15T11:38:53Z</time>
      </trkpt>
      <trkpt lat="46.16384" lon="6.43919">
        <ele>1292.1</ele>
        <time>2009-10-15T11:39:09Z</time>
      </trkpt>
      <trkpt lat="46.16394" lon="6.43931">
        <ele>1294.6</ele>
        <time>2009-10-15T11:39:31Z</time>
      </trkpt>
      <trkpt lat="46.16396" lon="6.43935">
        <ele>1297</ele>
        <time>2009-10-15T11:39:46Z</time>
      </trkpt>
      <trkpt lat="46.16405" lon="6.43947">
        <ele>1299.8</ele>
        <time>2009-10-15T11:40:04Z</time>
      </trkpt>
      <trkpt lat="46.1641" lon="6.43957">
        <ele>1302.7</ele>
        <time>2009-10-15T11:40:18Z</time>
      </trkpt>
      <trkpt lat="46.16416" lon="6.43965">
        <ele>1305.1</ele>
        <time>2009-10-15T11:40:39Z</time>
      </trkpt>
      <trkpt lat="46.16422" lon="6.43971">
        <ele>1309</ele>
        <time>2009-10-15T11:40:52Z</time>
      </trkpt>
      <trkpt lat="46.16428" lon="6.43975">
        <ele>1309.9</ele>
        <time>2009-10-15T11:41:07Z</time>
      </trkpt>
      <trkpt lat="46.16436" lon="6.43983">
        <ele>1311.9</ele>
        <time>2009-10-15T11:41:22Z</time>
      </trkpt>
      <trkpt lat="46.16443" lon="6.43988">
        <ele>1313.3</ele>
        <time>2009-10-15T11:41:30Z</time>
      </trkpt>
      <trkpt lat="46.16455" lon="6.44001">
        <ele>1312.3</ele>
        <time>2009-10-15T11:41:50Z</time>
      </trkpt>
      <trkpt lat="46.16462" lon="6.44013">
        <ele>1316.2</ele>
        <time>2009-10-15T11:42:08Z</time>
      </trkpt>
      <trkpt lat="46.16472" lon="6.44024">
        <ele>1318.6</ele>
        <time>2009-10-15T11:42:23Z</time>
      </trkpt>
      <trkpt lat="46.16472" lon="6.44025">
        <ele>1319.1</ele>
        <time>2009-10-15T11:42:24Z</time>
      </trkpt>
      <trkpt lat="46.16483" lon="6.44039">
        <ele>1323.4</ele>
        <time>2009-10-15T11:42:42Z</time>
      </trkpt>
      <trkpt lat="46.16495" lon="6.44049">
        <ele>1327.7</ele>
        <time>2009-10-15T11:43:01Z</time>
      </trkpt>
      <trkpt lat="46.16508" lon="6.44066">
        <ele>1334.4</ele>
        <time>2009-10-15T11:43:26Z</time>
      </trkpt>
      <trkpt lat="46.16519" lon="6.44078">
        <ele>1339.3</ele>
        <time>2009-10-15T11:43:46Z</time>
      </trkpt>
      <trkpt lat="46.16528" lon="6.4409">
        <ele>1341.7</ele>
        <time>2009-10-15T11:44:04Z</time>
      </trkpt>
      <trkpt lat="46.16539" lon="6.44104">
        <ele>1345</ele>
        <time>2009-10-15T11:44:25Z</time>
      </trkpt>
      <trkpt lat="46.16547" lon="6.44118">
        <ele>1347.9</ele>
        <time>2009-10-15T11:44:43Z</time>
      </trkpt>
      <trkpt lat="46.16556" lon="6.44134">
        <ele>1351.3</ele>
        <time>2009-10-15T11:45:05Z</time>
      </trkpt>
      <trkpt lat="46.16563" lon="6.44144">
        <ele>1354.6</ele>
        <time>2009-10-15T11:45:20Z</time>
      </trkpt>
      <trkpt lat="46.16578" lon="6.44155">
        <ele>1356.6</ele>
        <time>2009-10-15T11:45:37Z</time>
      </trkpt>
      <trkpt lat="46.16593" lon="6.44164">
        <ele>1356.1</ele>
        <time>2009-10-15T11:45:51Z</time>
      </trkpt>
      <trkpt lat="46.16615" lon="6.4418">
        <ele>1352.7</ele>
        <time>2009-10-15T11:46:07Z</time>
      </trkpt>
      <trkpt lat="46.1665" lon="6.442">
        <ele>1349.8</ele>
        <time>2009-10-15T11:46:28Z</time>
      </trkpt>
      <trkpt lat="46.16679" lon="6.44214">
        <ele>1349.8</ele>
        <time>2009-10-15T11:46:45Z</time>
      </trkpt>
      <trkpt lat="46.16702" lon="6.44244">
        <ele>1349.3</ele>
        <time>2009-10-15T11:47:02Z</time>
      </trkpt>
      <trkpt lat="46.16723" lon="6.44278">
        <ele>1353.7</ele>
        <time>2009-10-15T11:47:22Z</time>
      </trkpt>
      <trkpt lat="46.1674" lon="6.44288">
        <ele>1357</ele>
        <time>2009-10-15T11:47:38Z</time>
      </trkpt>
      <trkpt lat="46.16747" lon="6.44291">
        <ele>1358</ele>
        <time>2009-10-15T11:47:44Z</time>
      </trkpt>
      <trkpt lat="46.16773" lon="6.44311">
        <ele>1362.3</ele>
        <time>2009-10-15T11:48:05Z</time>
      </trkpt>
      <trkpt lat="46.16782" lon="6.44314">
        <ele>1363.8</ele>
        <time>2009-10-15T11:48:11Z</time>
      </trkpt>
      <trkpt lat="46.16795" lon="6.44315">
        <ele>1365.2</ele>
        <time>2009-10-15T11:48:21Z</time>
      </trkpt>
      <trkpt lat="46.16807" lon="6.44317">
        <ele>1366.2</ele>
        <time>2009-10-15T11:48:29Z</time>
      </trkpt>
      <trkpt lat="46.1682" lon="6.44317">
        <ele>1366.2</ele>
        <time>2009-10-15T11:48:39Z</time>
      </trkpt>
      <trkpt lat="46.16821" lon="6.44318">
        <ele>1366.2</ele>
        <time>2009-10-15T11:48:40Z</time>
      </trkpt>
      <trkpt lat="46.16821" lon="6.44328">
        <ele>1366.2</ele>
        <time>2009-10-15T11:48:47Z</time>
      </trkpt>
      <trkpt lat="46.16811" lon="6.44352">
        <ele>1371.5</ele>
        <time>2009-10-15T11:49:03Z</time>
      </trkpt>
      <trkpt lat="46.16793" lon="6.44363">
        <ele>1375.3</ele>
        <time>2009-10-15T11:49:20Z</time>
      </trkpt>
      <trkpt lat="46.1679" lon="6.44365">
        <ele>1375.8</ele>
        <time>2009-10-15T11:49:24Z</time>
      </trkpt>
      <trkpt lat="46.16772" lon="6.44366">
        <ele>1378.2</ele>
        <time>2009-10-15T11:49:41Z</time>
      </trkpt>
      <trkpt lat="46.16769" lon="6.44363">
        <ele>1378.7</ele>
        <time>2009-10-15T11:49:45Z</time>
      </trkpt>
      <trkpt lat="46.16762" lon="6.44364">
        <ele>1379.6</ele>
        <time>2009-10-15T11:49:52Z</time>
      </trkpt>
      <trkpt lat="46.16738" lon="6.44362">
        <ele>1384</ele>
        <time>2009-10-15T11:50:14Z</time>
      </trkpt>
      <trkpt lat="46.16715" lon="6.44361">
        <ele>1387.3</ele>
        <time>2009-10-15T11:50:36Z</time>
      </trkpt>
      <trkpt lat="46.16702" lon="6.44359">
        <ele>1390.2</ele>
        <time>2009-10-15T11:50:48Z</time>
      </trkpt>
      <trkpt lat="46.16696" lon="6.44358">
        <ele>1391.6</ele>
        <time>2009-10-15T11:50:54Z</time>
      </trkpt>
      <trkpt lat="46.16692" lon="6.44357">
        <ele>1392.6</ele>
        <time>2009-10-15T11:50:59Z</time>
      </trkpt>
      <trkpt lat="46.16687" lon="6.44355">
        <ele>1393.6</ele>
        <time>2009-10-15T11:51:04Z</time>
      </trkpt>
      <trkpt lat="46.16678" lon="6.44351">
        <ele>1395</ele>
        <time>2009-10-15T11:51:13Z</time>
      </trkpt>
      <trkpt lat="46.16669" lon="6.44353">
        <ele>1396.5</ele>
        <time>2009-10-15T11:51:21Z</time>
      </trkpt>
      <trkpt lat="46.16666" lon="6.44351">
        <ele>1396.9</ele>
        <time>2009-10-15T11:51:24Z</time>
      </trkpt>
      <trkpt lat="46.16644" lon="6.44345">
        <ele>1401.7</ele>
        <time>2009-10-15T11:51:46Z</time>
      </trkpt>
      <trkpt lat="46.16623" lon="6.44344">
        <ele>1405.6</ele>
        <time>2009-10-15T11:52:06Z</time>
      </trkpt>
      <trkpt lat="46.16618" lon="6.44342">
        <ele>1406.5</ele>
        <time>2009-10-15T11:52:10Z</time>
      </trkpt>
      <trkpt lat="46.16603" lon="6.4434">
        <ele>1408.9</ele>
        <time>2009-10-15T11:52:26Z</time>
      </trkpt>
      <trkpt lat="46.16599" lon="6.4434">
        <ele>1409.9</ele>
        <time>2009-10-15T11:52:31Z</time>
      </trkpt>
      <trkpt lat="46.1659" lon="6.4434">
        <ele>1411.8</ele>
        <time>2009-10-15T11:52:39Z</time>
      </trkpt>
      <trkpt lat="46.16577" lon="6.44339">
        <ele>1415.7</ele>
        <time>2009-10-15T11:52:57Z</time>
      </trkpt>
      <trkpt lat="46.1657" lon="6.44341">
        <ele>1417.6</ele>
        <time>2009-10-15T11:53:15Z</time>
      </trkpt>
      <trkpt lat="46.16553" lon="6.44342">
        <ele>1421.4</ele>
        <time>2009-10-15T11:53:42Z</time>
      </trkpt>
      <trkpt lat="46.16539" lon="6.44343">
        <ele>1425.8</ele>
        <time>2009-10-15T11:54:06Z</time>
      </trkpt>
      <trkpt lat="46.16527" lon="6.44341">
        <ele>1429.1</ele>
        <time>2009-10-15T11:54:24Z</time>
      </trkpt>
      <trkpt lat="46.16511" lon="6.44342">
        <ele>1432.5</ele>
        <time>2009-10-15T11:54:46Z</time>
      </trkpt>
      <trkpt lat="46.16495" lon="6.44349">
        <ele>1434.4</ele>
        <time>2009-10-15T11:55:03Z</time>
      </trkpt>
      <trkpt lat="46.16481" lon="6.44362">
        <ele>1437.3</ele>
        <time>2009-10-15T11:55:21Z</time>
      </trkpt>
      <trkpt lat="46.16475" lon="6.44367">
        <ele>1439.7</ele>
        <time>2009-10-15T11:55:35Z</time>
      </trkpt>
      <trkpt lat="46.16464" lon="6.44373">
        <ele>1441.6</ele>
        <time>2009-10-15T11:55:56Z</time>
      </trkpt>
      <trkpt lat="46.1645" lon="6.44378">
        <ele>1445</ele>
        <time>2009-10-15T11:56:15Z</time>
      </trkpt>
      <trkpt lat="46.16442" lon="6.44385">
        <ele>1446.9</ele>
        <time>2009-10-15T11:56:29Z</time>
      </trkpt>
      <trkpt lat="46.16436" lon="6.44393">
        <ele>1448.8</ele>
        <time>2009-10-15T11:56:45Z</time>
      </trkpt>
      <trkpt lat="46.16427" lon="6.44381">
        <ele>1452.2</ele>
        <time>2009-10-15T11:57:03Z</time>
      </trkpt>
      <trkpt lat="46.16421" lon="6.44369">
        <ele>1456.1</ele>
        <time>2009-10-15T11:57:19Z</time>
      </trkpt>
      <trkpt lat="46.16417" lon="6.44362">
        <ele>1458.5</ele>
        <time>2009-10-15T11:57:32Z</time>
      </trkpt>
      <trkpt lat="46.1641" lon="6.44352">
        <ele>1462.8</ele>
        <time>2009-10-15T11:57:53Z</time>
      </trkpt>
      <trkpt lat="46.16402" lon="6.44344">
        <ele>1466.6</ele>
        <time>2009-10-15T11:58:15Z</time>
      </trkpt>
      <trkpt lat="46.16388" lon="6.44339">
        <ele>1470.5</ele>
        <time>2009-10-15T11:58:37Z</time>
      </trkpt>
      <trkpt lat="46.16383" lon="6.44332">
        <ele>1473.4</ele>
        <time>2009-10-15T11:58:56Z</time>
      </trkpt>
      <trkpt lat="46.16374" lon="6.44328">
        <ele>1476.7</ele>
        <time>2009-10-15T11:59:12Z</time>
      </trkpt>
      <trkpt lat="46.16364" lon="6.44316">
        <ele>1480.6</ele>
        <time>2009-10-15T11:59:29Z</time>
      </trkpt>
      <trkpt lat="46.16352" lon="6.4431">
        <ele>1485.4</ele>
        <time>2009-10-15T11:59:50Z</time>
      </trkpt>
      <trkpt lat="46.16345" lon="6.44302">
        <ele>1486.3</ele>
        <time>2009-10-15T12:00:07Z</time>
      </trkpt>
      <trkpt lat="46.16346" lon="6.44295">
        <ele>1489.2</ele>
        <time>2009-10-15T12:00:17Z</time>
      </trkpt>
      <trkpt lat="46.16343" lon="6.44284">
        <ele>1492.1</ele>
        <time>2009-10-15T12:00:37Z</time>
      </trkpt>
      <trkpt lat="46.16343" lon="6.44271">
        <ele>1496.4</ele>
        <time>2009-10-15T12:00:52Z</time>
      </trkpt>
      <trkpt lat="46.16336" lon="6.44264">
        <ele>1498.4</ele>
        <time>2009-10-15T12:01:08Z</time>
      </trkpt>
      <trkpt lat="46.16335" lon="6.44263">
        <ele>1497.9</ele>
        <time>2009-10-15T12:01:31Z</time>
      </trkpt>
      <trkpt lat="46.16336" lon="6.44264">
        <ele>1497.4</ele>
        <time>2009-10-15T12:07:09Z</time>
      </trkpt>
      <trkpt lat="46.16337" lon="6.44265">
        <ele>1497.4</ele>
        <time>2009-10-15T12:07:23Z</time>
      </trkpt>
      <trkpt lat="46.16348" lon="6.44294">
        <ele>1489.7</ele>
        <time>2009-10-15T12:07:32Z</time>
      </trkpt>
      <trkpt lat="46.16347" lon="6.44305">
        <ele>1487.3</ele>
        <time>2009-10-15T12:07:35Z</time>
      </trkpt>
      <trkpt lat="46.16342" lon="6.44334">
        <ele>1485.4</ele>
        <time>2009-10-15T12:07:43Z</time>
      </trkpt>
      <trkpt lat="46.16342" lon="6.44334">
        <ele>1483.5</ele>
        <time>2009-10-15T12:07:56Z</time>
      </trkpt>
      <trkpt lat="46.16342" lon="6.44334">
        <ele>1483</ele>
        <time>2009-10-15T12:07:59Z</time>
      </trkpt>
      <trkpt lat="46.16324" lon="6.44387">
        <ele>1475.3</ele>
        <time>2009-10-15T12:08:11Z</time>
      </trkpt>
      <trkpt lat="46.16324" lon="6.44387">
        <ele>1475.3</ele>
        <time>2009-10-15T12:08:26Z</time>
      </trkpt>
      <trkpt lat="46.16322" lon="6.44393">
        <ele>1471</ele>
        <time>2009-10-15T12:08:40Z</time>
      </trkpt>
      <trkpt lat="46.16322" lon="6.44393">
        <ele>1469.5</ele>
        <time>2009-10-15T12:08:46Z</time>
      </trkpt>
      <trkpt lat="46.16317" lon="6.44409">
        <ele>1464.7</ele>
        <time>2009-10-15T12:09:00Z</time>
      </trkpt>
      <trkpt lat="46.16311" lon="6.44439">
        <ele>1459.9</ele>
        <time>2009-10-15T12:09:13Z</time>
      </trkpt>
      <trkpt lat="46.1631" lon="6.44449">
        <ele>1457</ele>
        <time>2009-10-15T12:09:17Z</time>
      </trkpt>
      <trkpt lat="46.16309" lon="6.44459">
        <ele>1454.6</ele>
        <time>2009-10-15T12:09:21Z</time>
      </trkpt>
      <trkpt lat="46.16307" lon="6.4448">
        <ele>1447.9</ele>
        <time>2009-10-15T12:09:29Z</time>
      </trkpt>
      <trkpt lat="46.16307" lon="6.44494">
        <ele>1445.5</ele>
        <time>2009-10-15T12:09:42Z</time>
      </trkpt>
      <trkpt lat="46.16324" lon="6.44522">
        <ele>1441.2</ele>
        <time>2009-10-15T12:09:55Z</time>
      </trkpt>
      <trkpt lat="46.16345" lon="6.4453">
        <ele>1434.4</ele>
        <time>2009-10-15T12:10:05Z</time>
      </trkpt>
      <trkpt lat="46.16352" lon="6.44535">
        <ele>1430.1</ele>
        <time>2009-10-15T12:10:19Z</time>
      </trkpt>
      <trkpt lat="46.16352" lon="6.44535">
        <ele>1429.6</ele>
        <time>2009-10-15T12:10:31Z</time>
      </trkpt>
      <trkpt lat="46.1635" lon="6.44558">
        <ele>1428.7</ele>
        <time>2009-10-15T12:10:33Z</time>
      </trkpt>
      <trkpt lat="46.16349" lon="6.44553">
        <ele>1424.8</ele>
        <time>2009-10-15T12:10:37Z</time>
      </trkpt>
      <trkpt lat="46.16343" lon="6.4456">
        <ele>1424.8</ele>
        <time>2009-10-15T12:10:41Z</time>
      </trkpt>
      <trkpt lat="46.16314" lon="6.44562">
        <ele>1425.8</ele>
        <time>2009-10-15T12:10:57Z</time>
      </trkpt>
      <trkpt lat="46.16306" lon="6.44562">
        <ele>1426.3</ele>
        <time>2009-10-15T12:11:09Z</time>
      </trkpt>
      <trkpt lat="46.16277" lon="6.44563">
        <ele>1424.8</ele>
        <time>2009-10-15T12:11:20Z</time>
      </trkpt>
      <trkpt lat="46.16243" lon="6.4457">
        <ele>1424.8</ele>
        <time>2009-10-15T12:11:35Z</time>
      </trkpt>
      <trkpt lat="46.16229" lon="6.44575">
        <ele>1421.9</ele>
        <time>2009-10-15T12:11:49Z</time>
      </trkpt>
      <trkpt lat="46.1623" lon="6.44577">
        <ele>1421.4</ele>
        <time>2009-10-15T12:12:00Z</time>
      </trkpt>
      <trkpt lat="46.1623" lon="6.4458">
        <ele>1421.4</ele>
        <time>2009-10-15T12:12:02Z</time>
      </trkpt>
      <trkpt lat="46.16221" lon="6.44597">
        <ele>1413.3</ele>
        <time>2009-10-15T12:12:10Z</time>
      </trkpt>
      <trkpt lat="46.16208" lon="6.44636">
        <ele>1402.7</ele>
        <time>2009-10-15T12:12:22Z</time>
      </trkpt>
      <trkpt lat="46.16196" lon="6.44655">
        <ele>1400.3</ele>
        <time>2009-10-15T12:12:25Z</time>
      </trkpt>
      <trkpt lat="46.16171" lon="6.44666">
        <ele>1403.7</ele>
        <time>2009-10-15T12:12:36Z</time>
      </trkpt>
      <trkpt lat="46.1616" lon="6.44666">
        <ele>1405.1</ele>
        <time>2009-10-15T12:12:45Z</time>
      </trkpt>
      <trkpt lat="46.16137" lon="6.44684">
        <ele>1406.1</ele>
        <time>2009-10-15T12:12:59Z</time>
      </trkpt>
      <trkpt lat="46.16119" lon="6.44705">
        <ele>1407</ele>
        <time>2009-10-15T12:13:10Z</time>
      </trkpt>
      <trkpt lat="46.16092" lon="6.4472">
        <ele>1407</ele>
        <time>2009-10-15T12:13:22Z</time>
      </trkpt>
      <trkpt lat="46.16081" lon="6.44736">
        <ele>1408.5</ele>
        <time>2009-10-15T12:13:34Z</time>
      </trkpt>
      <trkpt lat="46.16079" lon="6.44751">
        <ele>1408.5</ele>
        <time>2009-10-15T12:13:44Z</time>
      </trkpt>
      <trkpt lat="46.16054" lon="6.44788">
        <ele>1408</ele>
        <time>2009-10-15T12:13:54Z</time>
      </trkpt>
      <trkpt lat="46.16045" lon="6.44799">
        <ele>1408</ele>
        <time>2009-10-15T12:14:00Z</time>
      </trkpt>
      <trkpt lat="46.16013" lon="6.44813">
        <ele>1407</ele>
        <time>2009-10-15T12:14:12Z</time>
      </trkpt>
      <trkpt lat="46.15996" lon="6.44832">
        <ele>1409.4</ele>
        <time>2009-10-15T12:14:23Z</time>
      </trkpt>
      <trkpt lat="46.15977" lon="6.44852">
        <ele>1413.8</ele>
        <time>2009-10-15T12:14:41Z</time>
      </trkpt>
      <trkpt lat="46.15977" lon="6.44852">
        <ele>1415.7</ele>
        <time>2009-10-15T12:14:58Z</time>
      </trkpt>
      <trkpt lat="46.15977" lon="6.44852">
        <ele>1416.6</ele>
        <time>2009-10-15T12:15:16Z</time>
      </trkpt>
      <trkpt lat="46.15977" lon="6.44852">
        <ele>1417.1</ele>
        <time>2009-10-15T12:15:22Z</time>
      </trkpt>
      <trkpt lat="46.15977" lon="6.44852">
        <ele>1418.6</ele>
        <time>2009-10-15T12:15:26Z</time>
      </trkpt>
      <trkpt lat="46.15977" lon="6.44852">
        <ele>1421.4</ele>
        <time>2009-10-15T12:15:37Z</time>
      </trkpt>
      <trkpt lat="46.15977" lon="6.44852">
        <ele>1425.3</ele>
        <time>2009-10-15T12:15:55Z</time>
      </trkpt>
      <trkpt lat="46.15977" lon="6.44852">
        <ele>1428.2</ele>
        <time>2009-10-15T12:16:15Z</time>
      </trkpt>
      <trkpt lat="46.15977" lon="6.44852">
        <ele>1430.1</ele>
        <time>2009-10-15T12:16:31Z</time>
      </trkpt>
      <trkpt lat="46.15917" lon="6.44927">
        <ele>1430.1</ele>
        <time>2009-10-15T12:16:45Z</time>
      </trkpt>
      <trkpt lat="46.15917" lon="6.44927">
        <ele>1431.1</ele>
        <time>2009-10-15T12:16:57Z</time>
      </trkpt>
      <trkpt lat="46.15907" lon="6.44944">
        <ele>1431.1</ele>
        <time>2009-10-15T12:16:59Z</time>
      </trkpt>
      <trkpt lat="46.1589" lon="6.44972">
        <ele>1430.1</ele>
        <time>2009-10-15T12:17:14Z</time>
      </trkpt>
      <trkpt lat="46.15871" lon="6.45013">
        <ele>1428.7</ele>
        <time>2009-10-15T12:17:25Z</time>
      </trkpt>
      <trkpt lat="46.15858" lon="6.45046">
        <ele>1429.6</ele>
        <time>2009-10-15T12:17:38Z</time>
      </trkpt>
      <trkpt lat="46.15833" lon="6.45063">
        <ele>1429.6</ele>
        <time>2009-10-15T12:17:51Z</time>
      </trkpt>
      <trkpt lat="46.15802" lon="6.45095">
        <ele>1424.8</ele>
        <time>2009-10-15T12:18:02Z</time>
      </trkpt>
      <trkpt lat="46.15785" lon="6.45126">
        <ele>1422.9</ele>
        <time>2009-10-15T12:18:09Z</time>
      </trkpt>
      <trkpt lat="46.15767" lon="6.45145">
        <ele>1421.9</ele>
        <time>2009-10-15T12:18:18Z</time>
      </trkpt>
      <trkpt lat="46.15767" lon="6.45145">
        <ele>1421.9</ele>
        <time>2009-10-15T12:18:25Z</time>
      </trkpt>
      <trkpt lat="46.1576" lon="6.45151">
        <ele>1421.9</ele>
        <time>2009-10-15T12:18:29Z</time>
      </trkpt>
      <trkpt lat="46.1575" lon="6.45137">
        <ele>1420</ele>
        <time>2009-10-15T12:18:34Z</time>
      </trkpt>
      <trkpt lat="46.1575" lon="6.45115">
        <ele>1417.1</ele>
        <time>2009-10-15T12:18:38Z</time>
      </trkpt>
      <trkpt lat="46.15735" lon="6.45057">
        <ele>1409.4</ele>
        <time>2009-10-15T12:18:46Z</time>
      </trkpt>
      <trkpt lat="46.15732" lon="6.45028">
        <ele>1409.4</ele>
        <time>2009-10-15T12:18:50Z</time>
      </trkpt>
      <trkpt lat="46.15732" lon="6.45003">
        <ele>1408.5</ele>
        <time>2009-10-15T12:18:57Z</time>
      </trkpt>
      <trkpt lat="46.15707" lon="6.44953">
        <ele>1400.3</ele>
        <time>2009-10-15T12:19:12Z</time>
      </trkpt>
      <trkpt lat="46.15704" lon="6.44947">
        <ele>1399.3</ele>
        <time>2009-10-15T12:19:14Z</time>
      </trkpt>
      <trkpt lat="46.15695" lon="6.44934">
        <ele>1396.9</ele>
        <time>2009-10-15T12:19:19Z</time>
      </trkpt>
      <trkpt lat="46.15681" lon="6.4492">
        <ele>1394.5</ele>
        <time>2009-10-15T12:19:25Z</time>
      </trkpt>
      <trkpt lat="46.1565" lon="6.44901">
        <ele>1391.2</ele>
        <time>2009-10-15T12:19:35Z</time>
      </trkpt>
      <trkpt lat="46.15614" lon="6.44881">
        <ele>1386.8</ele>
        <time>2009-10-15T12:19:44Z</time>
      </trkpt>
      <trkpt lat="46.15601" lon="6.44876">
        <ele>1385.4</ele>
        <time>2009-10-15T12:19:47Z</time>
      </trkpt>
      <trkpt lat="46.15583" lon="6.44865">
        <ele>1383.5</ele>
        <time>2009-10-15T12:19:51Z</time>
      </trkpt>
      <trkpt lat="46.15579" lon="6.44863">
        <ele>1384</ele>
        <time>2009-10-15T12:20:00Z</time>
      </trkpt>
      <trkpt lat="46.15579" lon="6.44863">
        <ele>1383.5</ele>
        <time>2009-10-15T12:20:08Z</time>
      </trkpt>
      <trkpt lat="46.15569" lon="6.44861">
        <ele>1379.6</ele>
        <time>2009-10-15T12:20:14Z</time>
      </trkpt>
      <trkpt lat="46.15561" lon="6.4486">
        <ele>1375.8</ele>
        <time>2009-10-15T12:20:26Z</time>
      </trkpt>
      <trkpt lat="46.15557" lon="6.44859">
        <ele>1375.8</ele>
        <time>2009-10-15T12:20:28Z</time>
      </trkpt>
      <trkpt lat="46.15545" lon="6.44857">
        <ele>1373.9</ele>
        <time>2009-10-15T12:20:35Z</time>
      </trkpt>
      <trkpt lat="46.15541" lon="6.44856">
        <ele>1373.4</ele>
        <time>2009-10-15T12:20:37Z</time>
      </trkpt>
      <trkpt lat="46.15524" lon="6.44853">
        <ele>1368.1</ele>
        <time>2009-10-15T12:20:48Z</time>
      </trkpt>
      <trkpt lat="46.1549" lon="6.44836">
        <ele>1361.4</ele>
        <time>2009-10-15T12:21:01Z</time>
      </trkpt>
      <trkpt lat="46.15488" lon="6.44833">
        <ele>1360.9</ele>
        <time>2009-10-15T12:21:02Z</time>
      </trkpt>
      <trkpt lat="46.15464" lon="6.44802">
        <ele>1356.6</ele>
        <time>2009-10-15T12:21:13Z</time>
      </trkpt>
      <trkpt lat="46.15437" lon="6.44767">
        <ele>1347.9</ele>
        <time>2009-10-15T12:21:25Z</time>
      </trkpt>
      <trkpt lat="46.15435" lon="6.44764">
        <ele>1346.9</ele>
        <time>2009-10-15T12:21:26Z</time>
      </trkpt>
      <trkpt lat="46.15425" lon="6.44744">
        <ele>1345</ele>
        <time>2009-10-15T12:21:30Z</time>
      </trkpt>
      <trkpt lat="46.15414" lon="6.44717">
        <ele>1343.1</ele>
        <time>2009-10-15T12:21:36Z</time>
      </trkpt>
      <trkpt lat="46.15404" lon="6.44698">
        <ele>1340.2</ele>
        <time>2009-10-15T12:21:46Z</time>
      </trkpt>
      <trkpt lat="46.15404" lon="6.44698">
        <ele>1338.3</ele>
        <time>2009-10-15T12:22:14Z</time>
      </trkpt>
      <trkpt lat="46.15404" lon="6.44698">
        <ele>1337.8</ele>
        <time>2009-10-15T12:22:15Z</time>
      </trkpt>
      <trkpt lat="46.15404" lon="6.44698">
        <ele>1333.5</ele>
        <time>2009-10-15T12:22:27Z</time>
      </trkpt>
      <trkpt lat="46.15404" lon="6.44698">
        <ele>1330.6</ele>
        <time>2009-10-15T12:22:42Z</time>
      </trkpt>
      <trkpt lat="46.15404" lon="6.44698">
        <ele>1326.3</ele>
        <time>2009-10-15T12:23:00Z</time>
      </trkpt>
      <trkpt lat="46.15404" lon="6.44698">
        <ele>1325.8</ele>
        <time>2009-10-15T12:23:02Z</time>
      </trkpt>
      <trkpt lat="46.15367" lon="6.447">
        <ele>1317.6</ele>
        <time>2009-10-15T12:23:16Z</time>
      </trkpt>
      <trkpt lat="46.15356" lon="6.44713">
        <ele>1315.2</ele>
        <time>2009-10-15T12:23:25Z</time>
      </trkpt>
      <trkpt lat="46.1534" lon="6.44721">
        <ele>1312.8</ele>
        <time>2009-10-15T12:23:36Z</time>
      </trkpt>
      <trkpt lat="46.15334" lon="6.44724">
        <ele>1312.3</ele>
        <time>2009-10-15T12:23:39Z</time>
      </trkpt>
      <trkpt lat="46.15316" lon="6.44742">
        <ele>1307.5</ele>
        <time>2009-10-15T12:23:51Z</time>
      </trkpt>
      <trkpt lat="46.15298" lon="6.44761">
        <ele>1300.8</ele>
        <time>2009-10-15T12:24:01Z</time>
      </trkpt>
      <trkpt lat="46.1529" lon="6.44771">
        <ele>1297</ele>
        <time>2009-10-15T12:24:09Z</time>
      </trkpt>
      <trkpt lat="46.1529" lon="6.44771">
        <ele>1295.5</ele>
        <time>2009-10-15T12:24:33Z</time>
      </trkpt>
      <trkpt lat="46.1529" lon="6.44771">
        <ele>1296</ele>
        <time>2009-10-15T12:25:00Z</time>
      </trkpt>
      <trkpt lat="46.1529" lon="6.44771">
        <ele>1296</ele>
        <time>2009-10-15T12:25:01Z</time>
      </trkpt>
      <trkpt lat="46.15256" lon="6.44794">
        <ele>1291.2</ele>
        <time>2009-10-15T12:25:10Z</time>
      </trkpt>
      <trkpt lat="46.1525" lon="6.44794">
        <ele>1290.7</ele>
        <time>2009-10-15T12:25:11Z</time>
      </trkpt>
      <trkpt lat="46.15219" lon="6.44779">
        <ele>1284.9</ele>
        <time>2009-10-15T12:25:22Z</time>
      </trkpt>
      <trkpt lat="46.15212" lon="6.44779">
        <ele>1284.5</ele>
        <time>2009-10-15T12:25:26Z</time>
      </trkpt>
      <trkpt lat="46.15207" lon="6.44778">
        <ele>1282.1</ele>
        <time>2009-10-15T12:25:29Z</time>
      </trkpt>
      <trkpt lat="46.15193" lon="6.44776">
        <ele>1275.3</ele>
        <time>2009-10-15T12:25:35Z</time>
      </trkpt>
      <trkpt lat="46.15181" lon="6.44783">
        <ele>1272.4</ele>
        <time>2009-10-15T12:25:38Z</time>
      </trkpt>
      <trkpt lat="46.15164" lon="6.44792">
        <ele>1268.1</ele>
        <time>2009-10-15T12:25:46Z</time>
      </trkpt>
      <trkpt lat="46.15149" lon="6.448">
        <ele>1263.8</ele>
        <time>2009-10-15T12:25:59Z</time>
      </trkpt>
      <trkpt lat="46.15136" lon="6.44809">
        <ele>1260.4</ele>
        <time>2009-10-15T12:26:03Z</time>
      </trkpt>
      <trkpt lat="46.15115" lon="6.44817">
        <ele>1255.1</ele>
        <time>2009-10-15T12:26:08Z</time>
      </trkpt>
      <trkpt lat="46.15083" lon="6.44819">
        <ele>1247.4</ele>
        <time>2009-10-15T12:26:15Z</time>
      </trkpt>
      <trkpt lat="46.15075" lon="6.44816">
        <ele>1243.6</ele>
        <time>2009-10-15T12:26:18Z</time>
      </trkpt>
      <trkpt lat="46.15029" lon="6.44816">
        <ele>1232.5</ele>
        <time>2009-10-15T12:26:27Z</time>
      </trkpt>
      <trkpt lat="46.1502" lon="6.44818">
        <ele>1230.1</ele>
        <time>2009-10-15T12:26:29Z</time>
      </trkpt>
      <trkpt lat="46.14993" lon="6.44826">
        <ele>1222</ele>
        <time>2009-10-15T12:26:35Z</time>
      </trkpt>
      <trkpt lat="46.14984" lon="6.44827">
        <ele>1219.6</ele>
        <time>2009-10-15T12:26:37Z</time>
      </trkpt>
      <trkpt lat="46.14963" lon="6.44835">
        <ele>1212.8</ele>
        <time>2009-10-15T12:26:43Z</time>
      </trkpt>
      <trkpt lat="46.14912" lon="6.44846">
        <ele>1200.8</ele>
        <time>2009-10-15T12:26:56Z</time>
      </trkpt>
      <trkpt lat="46.14869" lon="6.44846">
        <ele>1199.4</ele>
        <time>2009-10-15T12:27:11Z</time>
      </trkpt>
      <trkpt lat="46.14844" lon="6.44838">
        <ele>1197.5</ele>
        <time>2009-10-15T12:27:18Z</time>
      </trkpt>
      <trkpt lat="46.14825" lon="6.44837">
        <ele>1194.1</ele>
        <time>2009-10-15T12:27:28Z</time>
      </trkpt>
      <trkpt lat="46.14825" lon="6.44837">
        <ele>1194.1</ele>
        <time>2009-10-15T12:27:33Z</time>
      </trkpt>
      <trkpt lat="46.14825" lon="6.44837">
        <ele>1193.6</ele>
        <time>2009-10-15T12:27:47Z</time>
      </trkpt>
      <trkpt lat="46.14786" lon="6.44836">
        <ele>1189.3</ele>
        <time>2009-10-15T12:28:02Z</time>
      </trkpt>
      <trkpt lat="46.1475" lon="6.44826">
        <ele>1180.2</ele>
        <time>2009-10-15T12:28:12Z</time>
      </trkpt>
      <trkpt lat="46.14737" lon="6.44821">
        <ele>1178.2</ele>
        <time>2009-10-15T12:28:15Z</time>
      </trkpt>
      <trkpt lat="46.14693" lon="6.4483">
        <ele>1170.1</ele>
        <time>2009-10-15T12:28:26Z</time>
      </trkpt>
      <trkpt lat="46.14662" lon="6.44829">
        <ele>1162.4</ele>
        <time>2009-10-15T12:28:37Z</time>
      </trkpt>
      <trkpt lat="46.14625" lon="6.4481">
        <ele>1151.8</ele>
        <time>2009-10-15T12:28:49Z</time>
      </trkpt>
      <trkpt lat="46.14601" lon="6.44792">
        <ele>1147.5</ele>
        <time>2009-10-15T12:28:55Z</time>
      </trkpt>
      <trkpt lat="46.14582" lon="6.44784">
        <ele>1140.3</ele>
        <time>2009-10-15T12:29:07Z</time>
      </trkpt>
      <trkpt lat="46.14566" lon="6.44768">
        <ele>1133.7</ele>
        <time>2009-10-15T12:29:23Z</time>
      </trkpt>
      <trkpt lat="46.14559" lon="6.44788">
        <ele>1137</ele>
        <time>2009-10-15T12:29:37Z</time>
      </trkpt>
      <trkpt lat="46.14561" lon="6.44817">
        <ele>1136.6</ele>
        <time>2009-10-15T12:29:55Z</time>
      </trkpt>
      <trkpt lat="46.14568" lon="6.44838">
        <ele>1135.7</ele>
        <time>2009-10-15T12:30:08Z</time>
      </trkpt>
      <trkpt lat="46.14577" lon="6.44858">
        <ele>1133.8</ele>
        <time>2009-10-15T12:30:22Z</time>
      </trkpt>
      <trkpt lat="46.14582" lon="6.44882">
        <ele>1129.1</ele>
        <time>2009-10-15T12:30:38Z</time>
      </trkpt>
      <trkpt lat="46.14587" lon="6.44906">
        <ele>1124.9</ele>
        <time>2009-10-15T12:30:53Z</time>
      </trkpt>
      <trkpt lat="46.14588" lon="6.44936">
        <ele>1114.6</ele>
        <time>2009-10-15T12:31:13Z</time>
      </trkpt>
      <trkpt lat="46.14591" lon="6.44963">
        <ele>1107.7</ele>
        <time>2009-10-15T12:31:30Z</time>
      </trkpt>
      <trkpt lat="46.14596" lon="6.44987">
        <ele>1101.2</ele>
        <time>2009-10-15T12:31:46Z</time>
      </trkpt>
      <trkpt lat="46.14602" lon="6.45009">
        <ele>1093.3</ele>
        <time>2009-10-15T12:32:01Z</time>
      </trkpt>
      <trkpt lat="46.14612" lon="6.45026">
        <ele>1089.4</ele>
        <time>2009-10-15T12:32:15Z</time>
      </trkpt>
      <trkpt lat="46.14603" lon="6.45044">
        <ele>1080.2</ele>
        <time>2009-10-15T12:32:30Z</time>
      </trkpt>
      <trkpt lat="46.14613" lon="6.45061">
        <ele>1077.8</ele>
        <time>2009-10-15T12:32:43Z</time>
      </trkpt>
      <trkpt lat="46.14623" lon="6.45078">
        <ele>1075.7</ele>
        <time>2009-10-15T12:32:56Z</time>
      </trkpt>
      <trkpt lat="46.14632" lon="6.45098">
        <ele>1072.8</ele>
        <time>2009-10-15T12:33:10Z</time>
      </trkpt>
      <trkpt lat="46.14633" lon="6.45127">
        <ele>1060.9</ele>
        <time>2009-10-15T12:33:30Z</time>
      </trkpt>
      <trkpt lat="46.14634" lon="6.45157">
        <ele>1051.7</ele>
        <time>2009-10-15T12:33:50Z</time>
      </trkpt>
      <trkpt lat="46.1464" lon="6.4518">
        <ele>1044.7</ele>
        <time>2009-10-15T12:34:05Z</time>
      </trkpt>
      <trkpt lat="46.14651" lon="6.45197">
        <ele>1043.8</ele>
        <time>2009-10-15T12:34:19Z</time>
      </trkpt>
      <trkpt lat="46.14662" lon="6.45212">
        <ele>1042.7</ele>
        <time>2009-10-15T12:34:32Z</time>
      </trkpt>
      <trkpt lat="46.14675" lon="6.45223">
        <ele>1045.5</ele>
        <time>2009-10-15T12:34:45Z</time>
      </trkpt>
      <trkpt lat="46.14689" lon="6.45234">
        <ele>1047.1</ele>
        <time>2009-10-15T12:34:59Z</time>
      </trkpt>
      <trkpt lat="46.14708" lon="6.45238">
        <ele>1044.9</ele>
        <time>2009-10-15T12:35:15Z</time>
      </trkpt>
      <trkpt lat="46.14709" lon="6.45235">
        <ele>1010</ele>
        <time>2009-10-15T12:35:43Z</time>
      </trkpt>
      <trkpt lat="46.14729" lon="6.45241">
        <ele>1004.2</ele>
        <time>2009-10-15T12:35:48Z</time>
      </trkpt>
      <trkpt lat="46.1476" lon="6.45254">
        <ele>991.3</ele>
        <time>2009-10-15T12:35:58Z</time>
      </trkpt>
      <trkpt lat="46.14761" lon="6.45254">
        <ele>990.3</ele>
        <time>2009-10-15T12:35:59Z</time>
      </trkpt>
      <trkpt lat="46.14775" lon="6.45228">
        <ele>984.5</ele>
        <time>2009-10-15T12:36:05Z</time>
      </trkpt>
      <trkpt lat="46.14803" lon="6.45245">
        <ele>977.8</ele>
        <time>2009-10-15T12:36:14Z</time>
      </trkpt>
      <trkpt lat="46.14807" lon="6.45244">
        <ele>975.9</ele>
        <time>2009-10-15T12:36:16Z</time>
      </trkpt>
      <trkpt lat="46.14829" lon="6.45272">
        <ele>969.6</ele>
        <time>2009-10-15T12:36:27Z</time>
      </trkpt>
      <trkpt lat="46.14831" lon="6.45276">
        <ele>969.6</ele>
        <time>2009-10-15T12:36:32Z</time>
      </trkpt>
      <trkpt lat="46.14834" lon="6.45284">
        <ele>969.1</ele>
        <time>2009-10-15T12:36:35Z</time>
      </trkpt>
      <trkpt lat="46.14835" lon="6.45291">
        <ele>968.7</ele>
        <time>2009-10-15T12:36:38Z</time>
      </trkpt>
      <trkpt lat="46.14846" lon="6.4533">
        <ele>968.2</ele>
        <time>2009-10-15T12:36:49Z</time>
      </trkpt>
      <trkpt lat="46.14846" lon="6.45354">
        <ele>965.3</ele>
        <time>2009-10-15T12:37:01Z</time>
      </trkpt>
      <trkpt lat="46.14826" lon="6.45393">
        <ele>965.8</ele>
        <time>2009-10-15T12:37:13Z</time>
      </trkpt>
      <trkpt lat="46.14815" lon="6.45424">
        <ele>962.4</ele>
        <time>2009-10-15T12:37:20Z</time>
      </trkpt>
      <trkpt lat="46.14801" lon="6.45435">
        <ele>961.5</ele>
        <time>2009-10-15T12:37:29Z</time>
      </trkpt>
      <trkpt lat="46.14785" lon="6.45454">
        <ele>960.5</ele>
        <time>2009-10-15T12:37:44Z</time>
      </trkpt>
      <trkpt lat="46.14777" lon="6.45463">
        <ele>960</ele>
        <time>2009-10-15T12:37:49Z</time>
      </trkpt>
      <trkpt lat="46.14774" lon="6.45468">
        <ele>959.5</ele>
        <time>2009-10-15T12:37:52Z</time>
      </trkpt>
      <trkpt lat="46.14766" lon="6.45474">
        <ele>960</ele>
        <time>2009-10-15T12:37:56Z</time>
      </trkpt>
      <trkpt lat="46.1476" lon="6.4549">
        <ele>960</ele>
        <time>2009-10-15T12:38:01Z</time>
      </trkpt>
      <trkpt lat="46.14756" lon="6.45493">
        <ele>960</ele>
        <time>2009-10-15T12:38:03Z</time>
      </trkpt>
      <trkpt lat="46.14748" lon="6.45504">
        <ele>960.5</ele>
        <time>2009-10-15T12:38:06Z</time>
      </trkpt>
      <trkpt lat="46.14736" lon="6.45516">
        <ele>961</ele>
        <time>2009-10-15T12:38:10Z</time>
      </trkpt>
      <trkpt lat="46.14713" lon="6.45526">
        <ele>960.5</ele>
        <time>2009-10-15T12:38:16Z</time>
      </trkpt>
      <trkpt lat="46.14691" lon="6.45553">
        <ele>949.4</ele>
        <time>2009-10-15T12:38:28Z</time>
      </trkpt>
      <trkpt lat="46.1469" lon="6.4556">
        <ele>948.5</ele>
        <time>2009-10-15T12:38:30Z</time>
      </trkpt>
      <trkpt lat="46.14673" lon="6.45576">
        <ele>940.8</ele>
        <time>2009-10-15T12:38:39Z</time>
      </trkpt>
      <trkpt lat="46.14654" lon="6.45584">
        <ele>931.2</ele>
        <time>2009-10-15T12:38:45Z</time>
      </trkpt>
      <trkpt lat="46.1465" lon="6.45584">
        <ele>929.7</ele>
        <time>2009-10-15T12:38:48Z</time>
      </trkpt>
      <trkpt lat="46.1464" lon="6.45592">
        <ele>925.9</ele>
        <time>2009-10-15T12:38:53Z</time>
      </trkpt>
      <trkpt lat="46.1464" lon="6.45623">
        <ele>922</ele>
        <time>2009-10-15T12:39:00Z</time>
      </trkpt>
      <trkpt lat="46.14676" lon="6.45687">
        <ele>917.2</ele>
        <time>2009-10-15T12:39:13Z</time>
      </trkpt>
      <trkpt lat="46.1469" lon="6.4571">
        <ele>911</ele>
        <time>2009-10-15T12:39:21Z</time>
      </trkpt>
      <trkpt lat="46.1469" lon="6.4571">
        <ele>910.5</ele>
        <time>2009-10-15T12:39:44Z</time>
      </trkpt>
      <trkpt lat="46.14699" lon="6.45723">
        <ele>909.5</ele>
        <time>2009-10-15T12:39:49Z</time>
      </trkpt>
      <trkpt lat="46.14715" lon="6.45741">
        <ele>907.1</ele>
        <time>2009-10-15T12:40:01Z</time>
      </trkpt>
      <trkpt lat="46.14717" lon="6.45744">
        <ele>904.3</ele>
        <time>2009-10-15T12:40:07Z</time>
      </trkpt>
      <trkpt lat="46.14735" lon="6.45763">
        <ele>897</ele>
        <time>2009-10-15T12:40:16Z</time>
      </trkpt>
      <trkpt lat="46.14742" lon="6.4577">
        <ele>896.1</ele>
        <time>2009-10-15T12:40:19Z</time>
      </trkpt>
      <trkpt lat="46.14744" lon="6.45772">
        <ele>885.5</ele>
        <time>2009-10-15T12:40:34Z</time>
      </trkpt>
      <trkpt lat="46.14766" lon="6.45794">
        <ele>879.7</ele>
        <time>2009-10-15T12:40:44Z</time>
      </trkpt>
      <trkpt lat="46.14779" lon="6.45819">
        <ele>873.5</ele>
        <time>2009-10-15T12:40:53Z</time>
      </trkpt>
      <trkpt lat="46.14779" lon="6.45823">
        <ele>871.6</ele>
        <time>2009-10-15T12:40:55Z</time>
      </trkpt>
      <trkpt lat="46.14779" lon="6.45824">
        <ele>869.2</ele>
        <time>2009-10-15T12:41:06Z</time>
      </trkpt>
      <trkpt lat="46.14779" lon="6.45824">
        <ele>862.9</ele>
        <time>2009-10-15T12:41:17Z</time>
      </trkpt>
      <trkpt lat="46.14779" lon="6.45824">
        <ele>861.5</ele>
        <time>2009-10-15T12:41:21Z</time>
      </trkpt>
      <trkpt lat="46.14766" lon="6.45837">
        <ele>853.8</ele>
        <time>2009-10-15T12:41:33Z</time>
      </trkpt>
      <trkpt lat="46.14761" lon="6.45839">
        <ele>852.8</ele>
        <time>2009-10-15T12:41:36Z</time>
      </trkpt>
      <trkpt lat="46.14758" lon="6.45838">
        <ele>851.4</ele>
        <time>2009-10-15T12:41:38Z</time>
      </trkpt>
      <trkpt lat="46.14757" lon="6.4586">
        <ele>847.5</ele>
        <time>2009-10-15T12:41:47Z</time>
      </trkpt>
      <trkpt lat="46.14764" lon="6.45863">
        <ele>845.6</ele>
        <time>2009-10-15T12:41:49Z</time>
      </trkpt>
      <trkpt lat="46.14774" lon="6.45888">
        <ele>835.5</ele>
        <time>2009-10-15T12:41:58Z</time>
      </trkpt>
      <trkpt lat="46.14793" lon="6.45915">
        <ele>822.5</ele>
        <time>2009-10-15T12:42:09Z</time>
      </trkpt>
      <trkpt lat="46.14801" lon="6.45915">
        <ele>820.6</ele>
        <time>2009-10-15T12:42:13Z</time>
      </trkpt>
      <trkpt lat="46.14812" lon="6.45915">
        <ele>816.8</ele>
        <time>2009-10-15T12:42:25Z</time>
      </trkpt>
      <trkpt lat="46.14816" lon="6.45921">
        <ele>818.2</ele>
        <time>2009-10-15T12:42:41Z</time>
      </trkpt>
      <trkpt lat="46.14817" lon="6.45922">
        <ele>818.7</ele>
        <time>2009-10-15T12:42:42Z</time>
      </trkpt>
      <trkpt lat="46.14826" lon="6.4593">
        <ele>819.2</ele>
        <time>2009-10-15T12:42:52Z</time>
      </trkpt>
      <trkpt lat="46.14826" lon="6.45928">
        <ele>818.2</ele>
        <time>2009-10-15T12:42:55Z</time>
      </trkpt>
      <trkpt lat="46.14811" lon="6.45958">
        <ele>816.8</ele>
        <time>2009-10-15T12:43:07Z</time>
      </trkpt>
      <trkpt lat="46.14807" lon="6.45965">
        <ele>815.3</ele>
        <time>2009-10-15T12:43:10Z</time>
      </trkpt>
      <trkpt lat="46.14808" lon="6.45978">
        <ele>806.7</ele>
        <time>2009-10-15T12:43:17Z</time>
      </trkpt>
      <trkpt lat="46.14804" lon="6.45985">
        <ele>803.3</ele>
        <time>2009-10-15T12:43:21Z</time>
      </trkpt>
      <trkpt lat="46.14801" lon="6.45995">
        <ele>799</ele>
        <time>2009-10-15T12:43:27Z</time>
      </trkpt>
      <trkpt lat="46.14795" lon="6.45995">
        <ele>791.3</ele>
        <time>2009-10-15T12:43:39Z</time>
      </trkpt>
      <trkpt lat="46.14779" lon="6.46003">
        <ele>788.9</ele>
        <time>2009-10-15T12:43:52Z</time>
      </trkpt>
      <trkpt lat="46.14772" lon="6.46004">
        <ele>782.7</ele>
        <time>2009-10-15T12:44:06Z</time>
      </trkpt>
      <trkpt lat="46.14771" lon="6.46005">
        <ele>782.2</ele>
        <time>2009-10-15T12:44:08Z</time>
      </trkpt>
      <trkpt lat="46.14766" lon="6.46011">
        <ele>777.8</ele>
        <time>2009-10-15T12:44:18Z</time>
      </trkpt>
      <trkpt lat="46.14763" lon="6.46017">
        <ele>771.1</ele>
        <time>2009-10-15T12:44:30Z</time>
      </trkpt>
      <trkpt lat="46.14762" lon="6.4602">
        <ele>770.2</ele>
        <time>2009-10-15T12:44:35Z</time>
      </trkpt>
      <trkpt lat="46.14756" lon="6.46024">
        <ele>769.2</ele>
        <time>2009-10-15T12:44:39Z</time>
      </trkpt>
      <trkpt lat="46.14748" lon="6.4604">
        <ele>762.9</ele>
        <time>2009-10-15T12:44:47Z</time>
      </trkpt>
      <trkpt lat="46.14734" lon="6.46068">
        <ele>756.2</ele>
        <time>2009-10-15T12:44:59Z</time>
      </trkpt>
      <trkpt lat="46.14724" lon="6.46095">
        <ele>748.5</ele>
        <time>2009-10-15T12:45:11Z</time>
      </trkpt>
      <trkpt lat="46.14716" lon="6.46125">
        <ele>742.8</ele>
        <time>2009-10-15T12:45:21Z</time>
      </trkpt>
      <trkpt lat="46.14711" lon="6.46151">
        <ele>737.9</ele>
        <time>2009-10-15T12:45:28Z</time>
      </trkpt>
      <trkpt lat="46.14723" lon="6.46164">
        <ele>733.1</ele>
        <time>2009-10-15T12:45:38Z</time>
      </trkpt>
      <trkpt lat="46.14725" lon="6.46181">
        <ele>731.2</ele>
        <time>2009-10-15T12:45:51Z</time>
      </trkpt>
      <trkpt lat="46.14723" lon="6.46186">
        <ele>730.7</ele>
        <time>2009-10-15T12:45:53Z</time>
      </trkpt>
      <trkpt lat="46.14724" lon="6.46192">
        <ele>730.7</ele>
        <time>2009-10-15T12:45:55Z</time>
      </trkpt>
      <trkpt lat="46.14723" lon="6.46207">
        <ele>727.4</ele>
        <time>2009-10-15T12:46:01Z</time>
      </trkpt>
      <trkpt lat="46.1472" lon="6.46225">
        <ele>726.4</ele>
        <time>2009-10-15T12:46:06Z</time>
      </trkpt>
      <trkpt lat="46.14716" lon="6.46234">
        <ele>725</ele>
        <time>2009-10-15T12:46:18Z</time>
      </trkpt>
      <trkpt lat="46.1471" lon="6.46248">
        <ele>721.1</ele>
        <time>2009-10-15T12:46:34Z</time>
      </trkpt>
      <trkpt lat="46.14708" lon="6.46254">
        <ele>720.6</ele>
        <time>2009-10-15T12:46:36Z</time>
      </trkpt>
      <trkpt lat="46.14705" lon="6.46288">
        <ele>716.3</ele>
        <time>2009-10-15T12:46:47Z</time>
      </trkpt>
      <trkpt lat="46.14703" lon="6.46309">
        <ele>714.9</ele>
        <time>2009-10-15T12:46:53Z</time>
      </trkpt>
      <trkpt lat="46.14702" lon="6.46327">
        <ele>713</ele>
        <time>2009-10-15T12:46:59Z</time>
      </trkpt>
      <trkpt lat="46.14698" lon="6.46338">
        <ele>710.6</ele>
        <time>2009-10-15T12:47:03Z</time>
      </trkpt>
      <trkpt lat="46.14685" lon="6.46374">
        <ele>697.6</ele>
        <time>2009-10-15T12:47:15Z</time>
      </trkpt>
      <trkpt lat="46.14684" lon="6.46375">
        <ele>695.7</ele>
        <time>2009-10-15T12:47:16Z</time>
      </trkpt>
      <trkpt lat="46.14664" lon="6.46382">
        <ele>687</ele>
        <time>2009-10-15T12:47:24Z</time>
      </trkpt>
      <trkpt lat="46.1462" lon="6.46415">
        <ele>673.5</ele>
        <time>2009-10-15T12:47:33Z</time>
      </trkpt>
      <trkpt lat="46.14604" lon="6.46444">
        <ele>667.8</ele>
        <time>2009-10-15T12:47:38Z</time>
      </trkpt>
      <trkpt lat="46.14587" lon="6.46472">
        <ele>661.5</ele>
        <time>2009-10-15T12:47:42Z</time>
      </trkpt>
      <trkpt lat="46.14584" lon="6.46522">
        <ele>656.7</ele>
        <time>2009-10-15T12:47:49Z</time>
      </trkpt>
      <trkpt lat="46.14563" lon="6.46589">
        <ele>651.4</ele>
        <time>2009-10-15T12:47:57Z</time>
      </trkpt>
      <trkpt lat="46.14564" lon="6.46615">
        <ele>649.5</ele>
        <time>2009-10-15T12:48:01Z</time>
      </trkpt>
      <trkpt lat="46.14535" lon="6.46602">
        <ele>643.7</ele>
        <time>2009-10-15T12:48:10Z</time>
      </trkpt>
      <trkpt lat="46.14453" lon="6.46524">
        <ele>638</ele>
        <time>2009-10-15T12:48:26Z</time>
      </trkpt>
      <trkpt lat="46.14337" lon="6.46411">
        <ele>631.2</ele>
        <time>2009-10-15T12:48:45Z</time>
      </trkpt>
      <trkpt lat="46.14206" lon="6.46281">
        <ele>625.5</ele>
        <time>2009-10-15T12:49:05Z</time>
      </trkpt>
      <trkpt lat="46.14072" lon="6.46149">
        <ele>622.6</ele>
        <time>2009-10-15T12:49:26Z</time>
      </trkpt>
      <trkpt lat="46.14018" lon="6.46095">
        <ele>621.6</ele>
        <time>2009-10-15T12:49:35Z</time>
      </trkpt>
      <trkpt lat="46.14002" lon="6.46072">
        <ele>620.2</ele>
        <time>2009-10-15T12:49:38Z</time>
      </trkpt>
      <trkpt lat="46.13987" lon="6.45985">
        <ele>614.9</ele>
        <time>2009-10-15T12:49:46Z</time>
      </trkpt>
      <trkpt lat="46.13992" lon="6.45939">
        <ele>613.5</ele>
        <time>2009-10-15T12:49:50Z</time>
      </trkpt>
      <trkpt lat="46.14028" lon="6.45894">
        <ele>612</ele>
        <time>2009-10-15T12:49:56Z</time>
      </trkpt>
      <trkpt lat="46.14054" lon="6.45828">
        <ele>607.7</ele>
        <time>2009-10-15T12:50:03Z</time>
      </trkpt>
      <trkpt lat="46.14045" lon="6.45812">
        <ele>606.2</ele>
        <time>2009-10-15T12:50:05Z</time>
      </trkpt>
      <trkpt lat="46.13972" lon="6.45647">
        <ele>599.5</ele>
        <time>2009-10-15T12:50:20Z</time>
      </trkpt>
      <trkpt lat="46.13948" lon="6.45606">
        <ele>598.1</ele>
        <time>2009-10-15T12:50:24Z</time>
      </trkpt>
      <trkpt lat="46.13939" lon="6.45546">
        <ele>595.7</ele>
        <time>2009-10-15T12:50:29Z</time>
      </trkpt>
      <trkpt lat="46.1394" lon="6.45521">
        <ele>594.7</ele>
        <time>2009-10-15T12:50:31Z</time>
      </trkpt>
      <trkpt lat="46.13908" lon="6.45469">
        <ele>590.4</ele>
        <time>2009-10-15T12:50:37Z</time>
      </trkpt>
      <trkpt lat="46.139" lon="6.45468">
        <ele>589.9</ele>
        <time>2009-10-15T12:50:38Z</time>
      </trkpt>
      <trkpt lat="46.13861" lon="6.4546">
        <ele>584.1</ele>
        <time>2009-10-15T12:50:44Z</time>
      </trkpt>
      <trkpt lat="46.1384" lon="6.45436">
        <ele>582.2</ele>
        <time>2009-10-15T12:50:49Z</time>
      </trkpt>
      <trkpt lat="46.13833" lon="6.45416">
        <ele>582.2</ele>
        <time>2009-10-15T12:50:52Z</time>
      </trkpt>
      <trkpt lat="46.13833" lon="6.45366">
        <ele>582</ele>
        <time>2009-10-15T12:51:04Z</time>
      </trkpt>
      <trkpt lat="46.13833" lon="6.45313">
        <ele>581.3</ele>
        <time>2009-10-15T12:51:18Z</time>
      </trkpt>
      <trkpt lat="46.13834" lon="6.45266">
        <ele>582.9</ele>
        <time>2009-10-15T12:51:30Z</time>
      </trkpt>
      <trkpt lat="46.13834" lon="6.45217">
        <ele>588.5</ele>
        <time>2009-10-15T12:51:42Z</time>
      </trkpt>
      <trkpt lat="46.1383" lon="6.45169">
        <ele>591.5</ele>
        <time>2009-10-15T12:51:55Z</time>
      </trkpt>
      <trkpt lat="46.13821" lon="6.45132">
        <ele>596.6</ele>
        <time>2009-10-15T12:52:05Z</time>
      </trkpt>
      <trkpt lat="46.13813" lon="6.45094">
        <ele>605.6</ele>
        <time>2009-10-15T12:52:15Z</time>
      </trkpt>
      <trkpt lat="46.13799" lon="6.45064">
        <ele>603</ele>
        <time>2009-10-15T12:52:25Z</time>
      </trkpt>
      <trkpt lat="46.13788" lon="6.4503">
        <ele>604.5</ele>
        <time>2009-10-15T12:52:34Z</time>
      </trkpt>
      <trkpt lat="46.13777" lon="6.44997">
        <ele>605.5</ele>
        <time>2009-10-15T12:52:43Z</time>
      </trkpt>
      <trkpt lat="46.13768" lon="6.44958">
        <ele>604.8</ele>
        <time>2009-10-15T12:52:54Z</time>
      </trkpt>
      <trkpt lat="46.1376" lon="6.4492">
        <ele>608</ele>
        <time>2009-10-15T12:53:04Z</time>
      </trkpt>
      <trkpt lat="46.13751" lon="6.44884">
        <ele>605.5</ele>
        <time>2009-10-15T12:53:14Z</time>
      </trkpt>
      <trkpt lat="46.13741" lon="6.44849">
        <ele>600.9</ele>
        <time>2009-10-15T12:53:24Z</time>
      </trkpt>
      <trkpt lat="46.13733" lon="6.44808">
        <ele>601.8</ele>
        <time>2009-10-15T12:53:34Z</time>
      </trkpt>
      <trkpt lat="46.13729" lon="6.44765">
        <ele>600.3</ele>
        <time>2009-10-15T12:53:46Z</time>
      </trkpt>
      <trkpt lat="46.13723" lon="6.44725">
        <ele>601.7</ele>
        <time>2009-10-15T12:53:56Z</time>
      </trkpt>
      <trkpt lat="46.13717" lon="6.44684">
        <ele>601.9</ele>
        <time>2009-10-15T12:54:07Z</time>
      </trkpt>
      <trkpt lat="46.13713" lon="6.44642">
        <ele>602.9</ele>
        <time>2009-10-15T12:54:17Z</time>
      </trkpt>
      <trkpt lat="46.1371" lon="6.44596">
        <ele>602.6</ele>
        <time>2009-10-15T12:54:29Z</time>
      </trkpt>
      <trkpt lat="46.13712" lon="6.44548">
        <ele>606.2</ele>
        <time>2009-10-15T12:54:42Z</time>
      </trkpt>
      <trkpt lat="46.13717" lon="6.44504">
        <ele>608.9</ele>
        <time>2009-10-15T12:54:53Z</time>
      </trkpt>
      <trkpt lat="46.13721" lon="6.44461">
        <ele>607.8</ele>
        <time>2009-10-15T12:55:04Z</time>
      </trkpt>
      <trkpt lat="46.13724" lon="6.44414">
        <ele>606.8</ele>
        <time>2009-10-15T12:55:16Z</time>
      </trkpt>
      <trkpt lat="46.13722" lon="6.44363">
        <ele>606.2</ele>
        <time>2009-10-15T12:55:29Z</time>
      </trkpt>
      <trkpt lat="46.13718" lon="6.44319">
        <ele>608.1</ele>
        <time>2009-10-15T12:55:40Z</time>
      </trkpt>
      <trkpt lat="46.13715" lon="6.44329">
        <ele>613.5</ele>
        <time>2009-10-15T12:55:44Z</time>
      </trkpt>
      <trkpt lat="46.13677" lon="6.44225">
        <ele>613.9</ele>
        <time>2009-10-15T12:56:00Z</time>
      </trkpt>
      <trkpt lat="46.13641" lon="6.4412">
        <ele>612.5</ele>
        <time>2009-10-15T12:56:16Z</time>
      </trkpt>
      <trkpt lat="46.13657" lon="6.44105">
        <ele>613.5</ele>
        <time>2009-10-15T12:56:22Z</time>
      </trkpt>
      <trkpt lat="46.13693" lon="6.441">
        <ele>616.8</ele>
        <time>2009-10-15T12:56:32Z</time>
      </trkpt>
      <trkpt lat="46.13697" lon="6.44091">
        <ele>617.8</ele>
        <time>2009-10-15T12:56:36Z</time>
      </trkpt>
      <trkpt lat="46.13698" lon="6.44059">
        <ele>615.9</ele>
        <time>2009-10-15T12:56:41Z</time>
      </trkpt>
      <trkpt lat="46.13698" lon="6.4397">
        <ele>613.9</ele>
        <time>2009-10-15T12:56:52Z</time>
      </trkpt>
      <trkpt lat="46.13698" lon="6.4392">
        <ele>612.5</ele>
        <time>2009-10-15T12:56:59Z</time>
      </trkpt>
      <trkpt lat="46.13707" lon="6.43831">
        <ele>612</ele>
        <time>2009-10-15T12:57:13Z</time>
      </trkpt>
      <trkpt lat="46.13715" lon="6.43801">
        <ele>612</ele>
        <time>2009-10-15T12:57:18Z</time>
      </trkpt>
      <trkpt lat="46.13751" lon="6.43689">
        <ele>614.9</ele>
        <time>2009-10-15T12:57:38Z</time>
      </trkpt>
      <trkpt lat="46.13771" lon="6.4363">
        <ele>615.4</ele>
        <time>2009-10-15T12:57:51Z</time>
      </trkpt>
      <trkpt lat="46.13776" lon="6.43579">
        <ele>615.9</ele>
        <time>2009-10-15T12:58:00Z</time>
      </trkpt>
      <trkpt lat="46.13778" lon="6.43504">
        <ele>608.9</ele>
      </trkpt>
      <trkpt lat="46.1376" lon="6.43434">
        <ele>611.9</ele>
      </trkpt>
      <trkpt lat="46.1373" lon="6.43384">
        <ele>611.2</ele>
      </trkpt>
      <trkpt lat="46.13713" lon="6.43311">
        <ele>613.7</ele>
      </trkpt>
      <trkpt lat="46.13706" lon="6.4322">
        <ele>620.7</ele>
      </trkpt>
      <trkpt lat="46.13697" lon="6.43139">
        <ele>629.3</ele>
      </trkpt>
      <trkpt lat="46.13685" lon="6.4306">
        <ele>628.8</ele>
      </trkpt>
      <trkpt lat="46.13678" lon="6.42976">
        <ele>621.5</ele>
      </trkpt>
      <trkpt lat="46.13671" lon="6.42888">
        <ele>609.3</ele>
      </trkpt>
      <trkpt lat="46.13666" lon="6.428">
        <ele>613</ele>
      </trkpt>
      <trkpt lat="46.13663" lon="6.42707">
        <ele>618.5</ele>
      </trkpt>
      <trkpt lat="46.1366" lon="6.42616">
        <ele>614.8</ele>
      </trkpt>
      <trkpt lat="46.13655" lon="6.42528">
        <ele>608.6</ele>
      </trkpt>
      <trkpt lat="46.1365" lon="6.4244">
        <ele>621.4</ele>
      </trkpt>
      <trkpt lat="46.13654" lon="6.4235">
        <ele>619.6</ele>
      </trkpt>
      <trkpt lat="46.13668" lon="6.42277">
        <ele>617.9</ele>
      </trkpt>
      <trkpt lat="46.13684" lon="6.42204">
        <ele>626</ele>
      </trkpt>
      <trkpt lat="46.13702" lon="6.42137">
        <ele>622</ele>
      </trkpt>
      <trkpt lat="46.13723" lon="6.4207">
        <ele>620</ele>
      </trkpt>
      <trkpt lat="46.13758" lon="6.42024">
        <ele>621.2</ele>
      </trkpt>
      <trkpt lat="46.13796" lon="6.42062">
        <ele>602.9</ele>
      </trkpt>
      <trkpt lat="46.13847" lon="6.42083">
        <ele>595.7</ele>
      </trkpt>
      <trkpt lat="46.13904" lon="6.42069">
        <ele>592</ele>
      </trkpt>
      <trkpt lat="46.1392" lon="6.41996">
        <ele>593</ele>
      </trkpt>
      <trkpt lat="46.13981" lon="6.41989">
        <ele>593.1</ele>
      </trkpt>
      <trkpt lat="46.1404" lon="6.42">
        <ele>597.8</ele>
      </trkpt>
      <trkpt lat="46.14099" lon="6.42008">
        <ele>593.6</ele>
      </trkpt>
      <trkpt lat="46.14156" lon="6.42019">
        <ele>593.7</ele>
      </trkpt>
      <trkpt lat="46.14208" lon="6.42">
        <ele>594</ele>
      </trkpt>
      <trkpt lat="46.14263" lon="6.42014">
        <ele>600.9</ele>
      </trkpt>
      <trkpt lat="46.14299" lon="6.41971">
        <ele>603.4</ele>
      </trkpt>
      <trkpt lat="46.14337" lon="6.42016">
        <ele>606.9</ele>
      </trkpt>
      <trkpt lat="46.14371" lon="6.42061">
        <ele>609.9</ele>
      </trkpt>
      <trkpt lat="46.14405" lon="6.42108">
        <ele>614.8</ele>
      </trkpt>
      <trkpt lat="46.14445" lon="6.42144">
        <ele>618.3</ele>
      </trkpt>
      <trkpt lat="46.14484" lon="6.42183">
        <ele>623</ele>
      </trkpt>
      <trkpt lat="46.14522" lon="6.42221">
        <ele>623.8</ele>
      </trkpt>
    </trkseg>
  </trk>
</gpx>